Triathlon Enghien les Bains - 31/05/2009

Courte Distance


Pl Do. Nom - Surname Prénom - Name S-Cat Club - Team TEMPS - Time /sx /cat LICENCE P1 Tps1 Vit1 P2 Tps2 Vit2 P3 Tps3 Vit3
1 1 POULAT Stephane MSE BEAUVAIS TRIATHLON 1:56:37.79 1 1 030280084153MS4FRA 1 0:17:54.9 5,0 1 1:03:34.6 38,7 3 0:35:08.2 17,1
2 339 LAMBERT Laurent MSE BEAUVAIS TRIATHLON 1:59:42.30 2 2 030282254253MS4FRA 4 0:19:05.9 4,7 2 1:03:54.5 38,5 5 0:36:41.7 16,4
3 3 BILLA Pierre MSE VERSAILLES TRIATHLON 2:03:07.43 3 3 011692781984MS2FRA 6 0:19:07.3 4,7 5 1:06:33.2 37,0 6 0:37:26.8 16,0
4 5 CONSTANTIN Olivier MSE VERSAILLES TRIATHLON 2:03:51.27 4 4 011690518532MS4FRA 3 0:19:04.8 4,7 6 1:06:34.6 36,9 10 0:38:11.7 15,7
5 10 POZZO DI BORGO Romain MSE CLUB DES NAGEURS DE PARIS 2:05:25.70 5 5 010153442984MS1FRA 15 0:20:42.3 4,3 7 1:06:39.6 36,9 7 0:38:03.6 15,8
6 72 MONNET Jean Paul MSE VERSAILLES TRIATHLON 2:05:58.35 6 6 011694238384MS2FRA 13 0:20:19.8 4,4 11 1:07:26.9 36,5 9 0:38:11.4 15,7
7 8 PAQUI Rudy MJU TRIATH`CLUB D`ANDRESY 2:06:25.88 7 1 010472918884MJUFRA 7 0:19:07.7 4,7 12 1:07:27.8 36,5 17 0:39:50.3 15,1
8 4 TRYOEN Jonathan MSE VERSAILLES TRIATHLON 2:07:44.79 8 7 011695735584MS1FRA 2 0:18:56.9 4,7 8 1:06:41.2 36,9 47 0:42:06.6 14,2
9 169 HERVE Gysain MSE T.N.T. EZANVILLE 2:08:36.53 9 8 011067718184MS2FRA 8 0:19:22.9 4,6 10 1:07:06.5 36,7 48 0:42:06.9 14,2
10 263 ALEM Boualem MSE ETAMPES TRIATHLON 2:09:06.96 10 9 1107ACONFIRMER 17 0:20:58.4 4,3 20 1:10:01.6 35,1 8 0:38:06.8 15,7
11 7 PAQUI Kévin MSE TRIATH`CLUB D`ANDRESY 2:10:20.61 11 10 010472918984MS1FRA 5 0:19:06.9 4,7 34 1:11:06.6 34,6 20 0:40:07.0 15,0
12 226 OUVRY Pierre MJU PIRANHAS TRIATHLON 2:10:48.51 12 2 190235080984MJUFRA 22 0:21:08.6 4,3 15 1:09:15.6 35,5 25 0:40:24.2 14,8
13 6 LAVAUD Romuald MSE TRIATHLON SANNOIS FRANCONVILLE 2:12:11.08 13 11 011780218799MS4FRA 84 0:25:00.8 3,6 4 1:06:21.0 37,1 29 0:40:49.2 14,7
14 251 TAJIRI Franck MV1 LAGARDERE PARIS RACING 2:13:05.14 14 1 010085276699MV1FRA 12 0:20:18.6 4,4 43 1:11:32.0 34,4 32 0:41:14.4 14,5
15 330 PERRIER Christophe MSE CLUB DES NAGEURS DE PARIS 2:13:38.53 15 12 010153479050MS4FRA 9 0:20:06.4 4,5 22 1:10:05.0 35,1 78 0:43:27.0 13,8
16 56 LE DIZES Nicolas MSE VMT - VALLEE DE MONTMORENCY TRIATHLON 2:13:50.96 16 13 011386443099MS2FRA 44 0:23:13.5 3,9 25 1:10:14.1 35,0 23 0:40:23.2 14,9
17 113 CORNILLOT Christophe MV1 TRIATHLON SANNOIS FRANCONVILLE 2:13:54.99 17 2 011780218650MV1FRA 140 0:26:40.6 3,4 13 1:08:14.4 36,0 13 0:38:59.9 15,4
18 156 PAQUI Pascal MV2 TRIATH`CLUB D`ANDRESY 2:14:18.03 18 1 010470284452MV2FRA 26 0:21:49.1 4,1 45 1:11:40.9 34,3 28 0:40:47.9 14,7
19 240 LECOLLETER Fabien MSE LES TRITONS MELDOIS 2:14:38.09 19 14 011158174799MS2FRA 10 0:20:07.9 4,5 46 1:11:44.0 34,3 64 0:42:46.1 14,0
20 246 DEBRY Tristan MSE LAGARDERE PARIS RACING 2:14:51.48 20 15 010085859736MS3FRA 25 0:21:32.1 4,2 39 1:11:26.8 34,4 44 0:41:52.4 14,3
21 337 GADRET Julien MSE BEAUVAIS TRIATHLON 2:15:03.56 21 16 030286956499MS3FRA 76 0:24:43.6 3,6 17 1:09:44.3 35,3 27 0:40:35.6 14,8
22 309 GAYRAUD Pierre MSE COURBEVOIE TRIATHLON 2:15:04.88 22 17 101827718436MS2FRA 98 0:25:34.1 3,5 72 1:13:17.8 33,6 4 0:36:12.8 16,6
23 356 SEHAN Jean-michel MV1 ASCC.RAMBOUILLET OLYMPIQUE 2:15:22.23 23 3 010177156232MV1FRA 33 0:22:47.6 3,9 23 1:10:09.4 35,1 56 0:42:25.2 14,1
24 316 POZZO DI BORGO Michel MV3 COURBEVOIE TRIATHLON 2:16:03.81 24 1 011823860136MV3FRA 43 0:23:12.4 3,9 27 1:10:17.7 35,0 61 0:42:33.5 14,1
25 336 DEWANCKELE Matthieu MSE BEAUVAIS TRIATHLON 2:16:26.08 25 18 030286954450MS3FRA 75 0:24:38.0 3,7 37 1:11:22.7 34,5 26 0:40:25.2 14,8
26 134 CANCIANI Bruno MV3 TRIATHLON CLUB TORCY 2:16:30.11 26 2 010580243199MV3FRA 85 0:25:08.2 3,6 14 1:08:33.3 35,9 65 0:42:48.5 14,0
27 488 SITKO Steve MV2   2:16:40.03 27 2   82 0:24:57.7 3,6 18 1:09:52.4 35,2 43 0:41:49.8 14,3
28 385 RADIGUE Cyril MSE A.S. CORBEIL-ESSONNES TRIATHLON 2:16:48.85 28 19 011230328250MS4FRA 51 0:23:28.4 3,8 38 1:11:25.8 34,4 45 0:41:54.6 14,3
29 68 BUCHERON Vincent MV1 VERSAILLES TRIATHLON 2:16:52.39 29 4 011690353047MV1FRA 31 0:22:35.5 4,0 31 1:10:51.8 34,7 77 0:43:24.9 13,8
30 139 GENDRON Patrick MV1 TRIATHLON CLUB ST QUENTIN EN YVEL. 2:17:20.77 30 5 011465146236MV1FRA 16 0:20:51.8 4,3 86 1:13:59.7 33,2 58 0:42:29.1 14,1
31 384 POIROT Nicolas MSE A.S. CORBEIL-ESSONNES TRIATHLON 2:17:25.84 31 20 011237156836MS3FRA 36 0:22:58.8 3,9 52 1:12:03.3 34,1 54 0:42:23.6 14,2
32 91 BERTRES Jean-marie MV1 U.S.O. BEZONS 2:17:36.24 32 6 011285662999MV1FRA 69 0:24:09.2 3,7 33 1:10:56.7 34,7 60 0:42:30.2 14,1
33 298 ROUSSEL Jean-luc MV1 DRANCY TRIATHLON 2:17:38.40 33 7 012024395950MV1FRA 38 0:23:02.1 3,9 92 1:14:14.8 33,1 22 0:40:21.4 14,9
34 159 DURAND Olivier MSE TRI.CLUB ISSY LES MOULINEAUX 2:17:40.21 34 21 010627466450MS4FRA 79 0:24:56.6 3,6 65 1:12:52.6 33,8 18 0:39:50.9 15,1
35 111 CAMBOUR Aurelien MSE TRIATHLON SANNOIS FRANCONVILLE 2:17:52.70 35 22 011787570547MS3FRA 37 0:23:01.6 3,9 61 1:12:24.9 34,0 57 0:42:26.1 14,1
36 73 VINCENT Tardieu MSE VERSAILLES TRIATHLON 2:17:56.58 36 23 011696961784MS2FRA 126 0:26:16.4 3,4 16 1:09:16.0 35,5 55 0:42:24.1 14,2
37 334 FAUDEL Lionel MSE CAEN TRIATHLON 2:17:59.50 37 24 200144495436MS4FRA 14 0:20:35.2 4,4 76 1:13:27.6 33,5 90 0:43:56.6 13,7
38 369 GUITARD Benoit MSE A.S.M BOUYGUES 2:18:09.42 38 25 011483326236MS4FRA 24 0:21:31.6 4,2 51 1:12:01.8 34,2 113 0:44:35.9 13,5
39 235 BLANQUART Emmanuel MSE LEVALLOIS TRIATHLON 2:18:25.94 39 26 011136712050MS2FRA 56 0:23:41.0 3,8 73 1:13:20.2 33,5 38 0:41:24.6 14,5
40 90 CERVINI VINCENT MV2   2:18:28.37 40 3 011284479484MS1FRA 35 0:22:56.3 3,9 32 1:10:54.5 34,7 114 0:44:37.4 13,4
41 449 HUMBERT Stephane MSE   2:18:55.30 41 27   27 0:21:49.8 4,1 91 1:14:12.6 33,1 69 0:42:52.8 14,0
42 323 PRIMOT Francois MV1 CLUB YERROIS DE TRIATHLON 91 2:19:10.56 42 8 010542707147MV1FRA 40 0:23:05.0 3,9 55 1:12:11.0 34,1 89 0:43:54.5 13,7
43 114 CORSO Gerard MV2 TRIATHLON SANNOIS FRANCONVILLE 2:19:21.25 43 4 011786419199MV2FRA 81 0:24:57.2 3,6 107 1:14:52.1 32,9 15 0:39:31.8 15,2
44 317 ROPARS Olivier MSE COURBEVOIE TRIATHLON 2:19:48.30 44 28 011823208236MS4FRA 124 0:26:14.3 3,4 63 1:12:39.0 33,9 30 0:40:54.8 14,7
45 275 LEVIEUX Denis MSE ENTENTE SPORTIVE NANTERRE 2:19:54.83 45 29 010531792223MS4FRA 54 0:23:33.5 3,8 64 1:12:43.3 33,8 83 0:43:37.9 13,8
46 260 GESNOUIN Ludovic MSE FREE IRON TEAM 2:20:01.70 46 30 040310358850MS4FRA 70 0:24:17.0 3,7 29 1:10:35.8 34,8 123 0:45:08.8 13,3
47 24 MARTEAU Laura FSE SAINTE GENEVIEVE TRIATHLON 2:20:13.57 1 1 011732782984FS1FRA 11 0:20:17.1 4,4 103 1:14:38.4 33,0 129 0:45:17.9 13,2
48 130 TAUFFLIEB Clément MSE TRIATHLON SANNOIS FRANCONVILLE 2:20:31.75 47 31 011785972999MS1FRA 41 0:23:08.5 3,9 77 1:13:36.7 33,4 87 0:43:46.4 13,7
49 368 GARRIDO Laurent MSE A.S.M BOUYGUES 2:20:52.64 48 32 011485997250MS4FRA 53 0:23:31.4 3,8 40 1:11:28.6 34,4 138 0:45:52.5 13,1
50 174 CLOUZARD Guillaume MSE STADE FRANCAIS 2:20:54.44 49 33 010397469331MS2FRA 182 0:27:21.6 3,3 48 1:11:55.0 34,2 40 0:41:37.7 14,4
51 350 ANSEL Julien MSE ASCC.RAMBOUILLET OLYMPIQUE 2:20:56.20 50 34 010176049350MS2FRA 18 0:20:59.0 4,3            
52 94 FERNANDEZ Alain MV1 U.S.O. BEZONS 2:20:56.86 51 9 011285354699MV1FRA 121 0:26:11.6 3,4 75 1:13:25.9 33,5 36 0:41:19.1 14,5
53 362 COQUET Raphael MSE A.S.P.S SENART TRIATHLON 2:21:03.52 52 35 012127656599MS3FRA 45 0:23:15.4 3,9 87 1:14:00.0 33,2 88 0:43:48.0 13,7
54 103 DELOGE Guillaume MSE TRINOSAURE 2:21:06.38 53 36 010016972632MS2FRA 77 0:24:49.3 3,6 54 1:12:08.8 34,1 98 0:44:08.1 13,6
55 237 FOGLIA Vivien MSE LEVALLOIS TRIATHLON 2:21:11.78 54 37 011133985150MS2FRA 78 0:24:56.4 3,6 82 1:13:53.9 33,3 53 0:42:21.3 14,2
56 377 DURAND Damien MSE A.S. CORBEIL-ESSONNES TRIATHLON 2:21:13.18 55 38 011232913436MS4FRA 47 0:23:21.2 3,9 58 1:12:19.9 34,0 135 0:45:31.9 13,2
57 361 CLAVERIE Pierre MSE A.S.P.S SENART TRIATHLON 2:21:21.51 56 39 012127656432MS3FRA 66 0:23:57.7 3,8 124 1:16:06.7 32,3 35 0:41:17.0 14,5
58 239 PONCET Regis MSE LEVALLOIS TRIATHLON 2:21:27.06 57 40 011138542853MS4FRA 203 0:27:49.9 3,2 41 1:11:29.3 34,4 50 0:42:07.7 14,2
59 347 ROUZIES Olivier MSE ASTRE CREILLOIS 2:21:39.33 58 41 030225933199MS4FRA 95 0:25:33.0 3,5 47 1:11:51.1 34,2 104 0:44:15.1 13,6
60 457 KAJENKIN Johan MSE   2:21:55.78 59 42   55 0:23:39.4 3,8 59 1:12:20.0 34,0 140 0:45:56.3 13,1
61 390 VALENTIN Antonio MV1 A.S. CORBEIL-ESSONNES TRIATHLON 2:21:56.88 60 10 011233827336MV1FRA 160 0:26:59.3 3,3 57 1:12:19.3 34,0 63 0:42:38.1 14,1
62 249 NICOLLE Olivier MSE LAGARDERE PARIS RACING 2:22:14.37 61 43 010083828850MSFRA 103 0:25:43.6 3,5 50 1:11:58.2 34,2 112 0:44:32.3 13,5
63 345 ATTINAULT Remi MSE ASTRE CREILLOIS 2:22:17.42 62 44 030227798660MS3FRA 221 0:28:18.4 3,2 19 1:09:58.9 35,2 93 0:44:00.0 13,6
64 284 MOKDAD Hacene MSE E.S. RENAULT TRIATHLON 2:22:21.65 63 45 012137995536MS2FRA 108 0:25:52.0 3,5 94 1:14:19.4 33,1 51 0:42:10.2 14,2
65 325 TINAT Fabrice MV2 CLUB YERROIS DE TRIATHLON 91 2:22:22.84 64 5 010545141536MV2FRA 206 0:27:53.4 3,2 67 1:12:58.6 33,7 39 0:41:30.6 14,5
66 353 LOWCZYK Sebastien MSE ASCC.RAMBOUILLET OLYMPIQUE 2:22:24.43 65 46 010175609236MS3FRA 58 0:23:42.4 3,8 120 1:15:46.7 32,5 72 0:42:55.2 14,0
67 327 COUTANT Christophe MV2 CLUB DES NAGEURS DE PARIS 2:22:38.52 66 6 010150243432MV2FRA 49 0:23:26.1 3,8 62 1:12:25.5 34,0 160 0:46:46.8 12,8
68 332 ALLART Maxime MSE CHARLEVILLE TRIATHLON ARDENNES 2:22:40.46 67 47 040027171832MS3FRA 119 0:26:09.7 3,4 56 1:12:11.7 34,1 105 0:44:18.9 13,5
69 101 RICHE Erwin MSE U.S. IVRY TRIATHLON 2:23:04.19 68 48 010778671745MS4FRA 343 0:31:37.7 2,8 35 1:11:07.1 34,6 21 0:40:19.2 14,9
70 97 SOUBOUL Hicham MSE U.S.O. BEZONS 2:23:14.94 69 49 011284563136MS4FRA 272 0:29:33.8 3,0 79 1:13:45.5 33,4 19 0:39:55.5 15,0
71 250 POTTIER Fabien MSE LAGARDERE PARIS RACING 2:23:16.60 70 50 010088533999MS1FRA 267 0:29:17.1 3,1 26 1:10:17.3 35,0 85 0:43:42.1 13,7
72 67 BEAUDOIN Gilbert MV3 VERSAILLES TRIATHLON 2:23:17.65 71 3 011690231047MV3FRA 114 0:26:01.3 3,5 93 1:14:16.0 33,1 74 0:43:00.2 14,0
73 333 BLANCHARD Cyril MSE CAEN TRIATHLON 2:23:20.29 72 51 200145564832MS2FRA 52 0:23:29.1 3,8 119 1:15:43.2 32,5 97 0:44:07.9 13,6
74 378 EON Mickael MSE A.S. CORBEIL-ESSONNES TRIATHLON 2:23:30.20 73 52 011232913436MS4FRA 150 0:26:50.5 3,4 42 1:11:29.4 34,4 124 0:45:10.2 13,3
75 136 TITARD David MSE TRIATHLON CLUB TORCY 2:23:33.89 74 53 010587212548MS4FRA 155 0:26:54.2 3,3 36 1:11:14.1 34,5 131 0:45:25.5 13,2
76 265 RUBY Alain MV3 ETAMPES TRIATHLON 2:23:42.90 75 4 011320265736MV3FRA 91 0:25:22.8 3,5 111 1:15:28.0 32,6 68 0:42:52.0 14,0
77 217 BLOSSE Cyrille MSE POISSY TRIATHLON 2:24:22.24 76 54 010206671136MS4FRA 220 0:28:17.2 3,2 108 1:15:07.1 32,7 31 0:40:57.7 14,6
78 108 LARDEUR Etienne MSE TRICEPS 2:24:30.64 77 55 011756472336MS3FRA 116 0:26:05.7 3,4 137 1:17:09.9 31,9 33 0:41:14.9 14,5
79 276 L'HOTELLIER Mathieu MSE ENTENTE SPORTIVE NANTERRE 2:24:41.46 78 56 010536964136MS2FRA 245 0:28:47.7 3,1 130 1:16:42.2 32,1 14 0:39:11.4 15,3
80 241 PAOLI Paul-arnaud MSE LES TRITONS MELDOIS 2:24:50.89 79 57 011158174099MS3FRA 313 0:30:55.4 2,9 318 1:25:43.9 28,7 2 0:28:11.4 21,3
81 138 COLAT David MSE TRIATHLON CLUB ST QUENTIN EN YVEL. 2:24:57.21 80 58 011466391084MS2FRA 157 0:26:55.1 3,3 88 1:14:00.2 33,2 94 0:44:01.8 13,6
82 213 AMIOT Pascal MSE POISSY TRIATHLON 2:24:59.77 81 59 01020T445460MS4FRA 236 0:28:35.7 3,1 101 1:14:34.4 33,0 42 0:41:49.6 14,3
83 177 DUBOIS Laurent MSE STADE FRANCAIS 2:25:02.13 82 60 010398476999MS2FRA 62 0:23:44.3 3,8 140 1:17:13.1 31,9 96 0:44:04.5 13,6
84 71 HADJ ABDERRAHMANE Rachid MSE VERSAILLES TRIATHLON 2:25:06.50 83 61 011697952247MS2FRA 128 0:26:20.6 3,4 143 1:17:23.7 31,8 37 0:41:22.1 14,5
85 128 PERES Christophe MSE TRIATHLON SANNOIS FRANCONVILLE 2:25:20.30 84 62 011786811099MS4FRA 164 0:27:01.3 3,3 81 1:13:49.4 33,3 111 0:44:29.5 13,5
86 387 SERVEAUX Romain MSE A.S. CORBEIL-ESSONNES TRIATHLON 2:25:23.84 85 63 011238609843MS1FRA 181 0:27:18.7 3,3 99 1:14:33.1 33,0 80 0:43:32.0 13,8
87 322 LEROUX Ludovic MSE CLUB YERROIS DE TRIATHLON 91 2:25:28.62 86 64 010546513832MS3FRA 120 0:26:10.2 3,4 66 1:12:54.5 33,7 151 0:46:23.8 12,9
88 52 DOUSPIS Stephane MSE VMT - VALLEE DE MONTMORENCY TRIATHLON 2:25:32.37 87 65 011387353431MS4FRA 235 0:28:34.0 3,2 60 1:12:20.5 34,0 115 0:44:37.8 13,4
89 51 DEMARINE Olivier MSE VMT - VALLEE DE MONTMORENCY TRIATHLON 2:25:32.52 88 66 011387980736MS2FRA 106 0:25:49.6 3,5 97 1:14:29.4 33,0 126 0:45:13.4 13,3
90 351 GAC Yann MSE ASCC.RAMBOUILLET OLYMPIQUE 2:25:47.98 89 67 010177011336MS4FRA 110 0:25:56.1 3,5 44 1:11:37.8 34,3 188 0:48:13.9 12,4
91 274 LAMBART Jean-marie MSE ENTENTE SPORTIVE NANTERRE 2:25:52.63 90 68 010537673136MS2FRA 145 0:26:45.5 3,4 133 1:16:52.3 32,0 52 0:42:14.8 14,2
92 166 LAURENT Fauvergue MSE TEAM CAP TRIATHLON 2:26:05.60 91 69 012036416450MS4FRA 50 0:23:27.0 3,8 167 1:18:13.2 31,4 109 0:44:25.2 13,5
93 225 TUGAYE Nicolas MSE POISSY TRIATHLON 2:26:14.48 92 70 010206698153MS3FRA 61 0:23:43.8 3,8 118 1:15:40.5 32,5 162 0:46:50.0 12,8
94 397 ABSOUS Olivier MSE   2:26:16.14 93 71   28 0:21:52.7 4,1 223 1:20:20.0 30,6 95 0:44:03.3 13,6
95 124 MENTEUR Alexandre MSE TRIATHLON SANNOIS FRANCONVILLE 2:26:16.63 94 72 011787951799MS4FRA 204 0:27:51.4 3,2 89 1:14:02.6 33,2 107 0:44:22.5 13,5
96 151 NEN Yannick MSE TRIATHLON 91 2:26:18.51 95 73 010168612136MS4FRA 111 0:25:59.3 3,5 71 1:13:17.1 33,6 169 0:47:02.0 12,8
97 366 APICELLA Francois MV2 A.S.M BOUYGUES 2:26:23.50 96 7 011480236536MV2FRA 234 0:28:33.5 3,2 128 1:16:33.8 32,1 34 0:41:16.0 14,5
98 224 PLOUZE Etienne MSE POISSY TRIATHLON 2:26:28.28 97 74 010205302484MS2FRA 166 0:27:02.8 3,3 85 1:13:58.0 33,3 133 0:45:27.4 13,2
99 328 DE WANGEN Eric MV1 CLUB DES NAGEURS DE PARIS 2:26:30.29 98 11 010153949032MV1FRA 228 0:28:28.2 3,2 80 1:13:47.6 33,3 103 0:44:14.4 13,6
100 54 DUMUSOY Loic MSE VMT - VALLEE DE MONTMORENCY TRIATHLON 2:26:35.84 99 75 011386711232MS3FRA 196 0:27:41.7 3,2 74 1:13:22.5 33,5 134 0:45:31.5 13,2
101 41 GANCE Catherine FV1 CLUB DES NAGEURS DE PARIS 2:26:58.45 2 1 010150218443FV1FRA 174 0:27:11.0 3,3 84 1:13:56.9 33,3 137 0:45:50.4 13,1
102 131 WIBLE Martin MSE TRIATHLON SANNOIS FRANCONVILLE 2:27:03.73 100 76 011786715932MS2FRA 107 0:25:51.9 3,5 194 1:19:23.6 31,0 41 0:41:48.1 14,4
103 48 LURO Julien MSE WAPITI TRIATHLON CLUB DE LARMOR-PLAGE 2:27:11.15 101 77 210288055542MS2FRA 104 0:25:45.7 3,5 175 1:18:31.9 31,3 70 0:42:53.4 14,0
104 496 VILLADIER Arnaud MSE   2:27:13.71 102 78   387 0:33:29.0 2,7 24 1:10:12.4 35,0 81 0:43:32.2 13,8
105 236 DUPORT Régis MSE LEVALLOIS TRIATHLON 2:27:26.41 103 79 011135957436MS2FRA 165 0:27:01.5 3,3 112 1:15:30.1 32,6 120 0:44:54.7 13,4
106 19 BEAUDOIN Nadege FSE STADE FRANCAIS 2:27:27.87 3 2 010392782042FS2FRA 102 0:25:42.9 3,5 146 1:17:33.0 31,7 101 0:44:11.8 13,6
107 25 LE TENO Béatrice FV1 S.O. HOUILLES TRIATHLON 2:27:47.50 4 2 010067241550FV1FRA 96 0:25:33.1 3,5 158 1:17:52.4 31,6 106 0:44:21.8 13,5
108 16 BAZIRE Sonia FSE TEAM GIR'S 2:27:50.76 5 3 012007657042FS3FRA 138 0:26:37.9 3,4 96 1:14:26.9 33,0 159 0:46:45.9 12,8
109 244 BERTRAND Sébastien MSE LAGARDERE PARIS RACING 2:27:51.17 104 80 010086891836MS4FRA 265 0:29:13.1 3,1 116 1:15:38.4 32,5 73 0:42:59.5 14,0
110 238 PICHAYROU Olivier MSE LEVALLOIS TRIATHLON 2:27:52.07 105 81 011134765036MS3FRA 32 0:22:46.9 4,0 162 1:18:04.7 31,5 168 0:47:00.3 12,8
111 427 DROUET Olivier MSE   2:28:24.26 106 82   190 0:27:34.7 3,3 132 1:16:51.3 32,0 91 0:43:58.1 13,6
112 171 PRADAL Thierry MSE T.N.T. EZANVILLE 2:28:28.21 107 83 011068377150MS4FRA 34 0:22:55.1 3,9 269 1:22:55.6 29,7 62 0:42:37.3 14,1
113 98 CASTAGNET Thomas MSE U.S. IVRY TRIATHLON 2:28:30.65 108 84 010778611848MS2FRA 180 0:27:18.5 3,3 122 1:15:58.9 32,4 125 0:45:13.1 13,3
114 382 PICHEREAU Nicolas MSE A.S. CORBEIL-ESSONNES TRIATHLON 2:28:40.56 109 85 011235361347MS2FRA 83 0:24:58.8 3,6 183 1:18:48.5 31,2 119 0:44:53.1 13,4
115 87 MELLA Bernardo MV1 UNION ATHLETIQUE SOCIETE GENERALE 2:28:50.82 110 12 011437780336MV1CHI 80 0:24:56.8 3,6 123 1:16:01.3 32,4 181 0:47:52.6 12,5
116 122 LENORMAND Jean-christophe MSE TRIATHLON SANNOIS FRANCONVILLE 2:28:58.74 111 86 011780293953MS4FRA 23 0:21:16.7 4,2 196 1:19:27.5 31,0 189 0:48:14.4 12,4
117 219 COSTY Tony MV2 POISSY TRIATHLON 2:29:12.46 112 8 010206464850MV2FRA 304 0:30:29.3 3,0 98 1:14:30.5 33,0 102 0:44:12.5 13,6
118 389 TEYTAUT Marc MV3 A.S. CORBEIL-ESSONNES TRIATHLON 2:29:17.32 113 5 011230279899MV3FRA 74 0:24:29.7 3,7 199 1:19:29.7 30,9 128 0:45:17.8 13,2
119 49 BOUYER Loïc MJU VMT - VALLEE DE MONTMORENCY TRIATHLON 2:29:22.31 114 3 011386669684MJUFRA 65 0:23:56.9 3,8 53 1:12:05.7 34,1 298 0:53:19.6 11,3
120 168 GRAFTE Marc MSE T.N.T. EZANVILLE 2:29:25.91 115 87 011065918284MS1FRA 67 0:24:04.4 3,7 113 1:15:33.6 32,6 226 0:49:47.7 12,0
121 363 FAUCHIER Nicolas MV1 A.S.P.S SENART TRIATHLON 2:29:29.94 116 13 012126653031MV1FRA 225 0:28:22.6 3,2 83 1:13:56.6 33,3 171 0:47:10.6 12,7
122 209 GIL Baptiste MSE RED STAR CLUB CHAMPIGNY 2:29:37.15 117 88 010447942542MS3FRA 109 0:25:52.9 3,5 129 1:16:37.1 32,1 170 0:47:07.1 12,7
123 264 GIGAULT Laurent MV4 ETAMPES TRIATHLON 2:29:40.49 118 1 011326313747MV3FRA 330 0:31:27.0 2,9 110 1:15:23.3 32,6 67 0:42:50.0 14,0
124 321 DUBREIL Michael MSE CLUB YERROIS DE TRIATHLON 91 2:30:05.93 119 89 010546514552MS4FRA 240 0:28:38.8 3,1 153 1:17:47.6 31,6 84 0:43:39.3 13,7
125 107 EMORINE Pascal MV1 TRICEPS 2:30:11.69 120 14 011755967199MV1FRA 266 0:29:14.0 3,1 102 1:14:37.2 33,0 149 0:46:20.3 12,9
126 296 DA SILVA FARIA Philippe MV1 DRAVEIL TRIATHLON 2000 2:30:12.04 121 15 010195451932MV1FRA 350 0:31:49.4 2,8 114 1:15:33.8 32,6 66 0:42:48.7 14,0
127 112 CELESTE Eric MSE TRIATHLON SANNOIS FRANCONVILLE 2:30:25.07 122 90 011785291584MS2FRA 132 0:26:29.4 3,4 156 1:17:50.8 31,6 144 0:46:04.7 13,0
128 69 CHRISTOPHE Drouet MSE VERSAILLES TRIATHLON 2:30:26.81 123 91 011692786499MS2FRA 163 0:27:00.9 3,3 165 1:18:10.1 31,5 127 0:45:15.6 13,3
129 305 COLOMBET David MSE COURBEVOIE TRIATHLON 2:30:28.19 124 92 011826959036MS3FRA 222 0:28:19.3 3,2 109 1:15:10.5 32,7 167 0:46:58.3 12,8
130 302 ANTKOWIAK Fabrice MV1 COURBEVOIE TRIATHLON 2:30:28.69 125 16 011827361450MV1FRA 195 0:27:40.7 3,3 115 1:15:36.5 32,5 173 0:47:11.4 12,7
131 220 DROUET Nicolas MSE POISSY TRIATHLON 2:30:37.77 126 93 010200144284MS2FRA 125 0:26:16.1 3,4 121 1:15:49.8 32,4 195 0:48:31.7 12,4
132 343 LEYMARIE Jean-baptiste MSE ATHLETIC CLUB BOULOGNE BILLANCOURT 2:30:39.50 127 94 011377963431MS3FRA 189 0:27:31.7 3,3 160 1:17:59.2 31,5 122 0:45:08.4 13,3
133 357 SORDET Olivier MSE ASCC.RAMBOUILLET OLYMPIQUE 2:30:41.37 128 95 010177735736MS3FRA 68 0:24:04.5 3,7 139 1:17:12.0 31,9 220 0:49:24.7 12,1
134 200 VITIERE Laurent MV2 S.C.A. 2000 TRIATHLON EVRY 2:30:54.97 129 9 010110087836MV2FRA 167 0:27:03.2 3,3 127 1:16:29.5 32,2 177 0:47:22.2 12,7
135 100 FRUMENTO Thibaut MSE U.S. IVRY TRIATHLON 2:30:58.50 130 96 010776849499MS1FRA 152 0:26:51.9 3,3 215 1:20:08.3 30,7 92 0:43:58.2 13,6
136 21 LENNOZ GRATIN Cécile FSE STADE FRANCAIS 2:31:00.52 6 4 010397241443FS4FRA 210 0:28:01.3 3,2 125 1:16:12.2 32,3 161 0:46:46.9 12,8
137 190 ELIASSE Eric MV1 S.O. HOUILLES TRIATHLON 2:31:18.69 131 17 010066890050MV1FRA 94 0:25:31.2 3,5 141 1:17:23.2 31,8 193 0:48:24.1 12,4
138 425 DIABY Sory MSE   2:31:21.67 132 97   198 0:27:44.8 3,2 222 1:20:19.3 30,6 75 0:43:17.4 13,9
139 214 ARDIN Fabrice MSE POISSY TRIATHLON 2:31:27.08 133 98 010207032953MS3FRA 262 0:29:09.9 3,1 179 1:18:43.0 31,3 82 0:43:34.0 13,8
140 258 DRELON Fredéric MSE FREE IRON TEAM 2:31:30.47 134 99 040317990853MS4FRA 410 0:34:16.8 2,6 145 1:17:30.2 31,7 16 0:39:43.4 15,1
141 106 CONNAULT Romain MSE TRICEPS 2:31:41.30 135 100 011758377836MS3FRA 153 0:26:52.8 3,3 117 1:15:38.6 32,5 210 0:49:09.7 12,2
142 364 GATTA Thierry MSE A.S.P.S SENART TRIATHLON 2:31:48.30 136 101 012127809642MS3FRA 149 0:26:49.9 3,4 187 1:19:03.9 31,1 139 0:45:54.3 13,1
143 499 YVALUN Johan MSE   2:32:03.63 137 102   97 0:25:34.0 3,5 302 1:24:21.8 29,2 49 0:42:07.7 14,2
144 120 JURIE Lucien MV4 TRIATHLON SANNOIS FRANCONVILLE 2:32:05.29 138 2 011780218047MV4FRA 258 0:29:04.6 3,1 105 1:14:45.7 32,9 190 0:48:14.8 12,4
145 206 CAYATTE Mathieu MSE RED STAR CLUB CHAMPIGNY 2:32:16.32 139 103 010447991936MS3FRA 200 0:27:47.3 3,2 126 1:16:20.2 32,2 186 0:48:08.6 12,5
146 314 MENU Vincent MV2 COURBEVOIE TRIATHLON 2:32:16.74 140 10 011826959436MV2FRA 341 0:31:36.7 2,8 220 1:20:16.3 30,6 24 0:40:23.6 14,9
147 192 GUILLOTEAU Philippe MV2 S.O. HOUILLES TRIATHLON 2:32:20.90 141 11 010064715836MV2FRA 191 0:27:35.6 3,3 131 1:16:46.2 32,0 183 0:47:58.9 12,5
148 187 DUHAUTOY Ludovic MSE SENS TRIATHLON 2:32:23.05 142 104 220591987043MS3FRA 263 0:29:11.0 3,1 90 1:14:03.3 33,2 209 0:49:08.7 12,2
149 117 FERDIN François MSE TRIATHLON SANNOIS FRANCONVILLE 2:32:31.58 143 105 011787261545MS3FRA 248 0:28:56.1 3,1 135 1:17:05.5 31,9 152 0:46:29.9 12,9
150 121 LEMERRE Thierry MV3 TRIATHLON SANNOIS FRANCONVILLE 2:32:34.08 144 6 011785507999MV2FRA 287 0:30:03.8 3,0 163 1:18:05.2 31,5 108 0:44:24.9 13,5
151 426 DROUET Sébastien MSE   2:32:40.45 145 106   187 0:27:30.6 3,3 95 1:14:26.6 33,0 248 0:50:43.1 11,8
152 448 HUBERT Stephane MV1   2:32:41.29 146 18   63 0:23:44.5 3,8 211 1:20:01.8 30,7 205 0:48:54.8 12,3
153 202 DANIEL Ludovic MSE ROUEN TRIATHLON 2:32:44.90 147 107 190066999947MS4FRA 130 0:26:26.6 3,4 100 1:14:33.8 33,0 266 0:51:44.3 11,6
154 398 ARNAUD Gelsomino MSE   2:32:54.25 148 108   334 0:31:30.0 2,9 49 1:11:56.6 34,2 223 0:49:27.5 12,1
155 167 RICHARD Philippe MSE TEAM CAP TRIATHLON 2:33:01.47 149 109 012038587436MS4FRA 260 0:29:06.9 3,1 106 1:14:47.0 32,9 208 0:49:07.5 12,2
156 27 JOVANOVA Blagica FSE S.C.A. 2000 TRIATHLON EVRY 2:33:02.17 7 5 010117011484FS2FRA 283 0:29:58.1 3,0 134 1:16:55.1 32,0 145 0:46:08.8 13,0
157 280 PETOT Florian MSE ECOLE INTERCOMMUNALE DE TRIATHLON 2:33:03.49 150 110 011248448150MS2FRA 162 0:27:00.3 3,3 198 1:19:28.2 31,0 154 0:46:34.8 12,9
158 283 GUENOUX Francois MSE E.S. RENAULT TRIATHLON 2:33:18.88 151 111 012138641450MS2FRA 300 0:30:18.4 3,0 214 1:20:05.2 30,7 71 0:42:55.1 14,0
159 312 HENARD Francois MSE COURBEVOIE TRIATHLON 2:33:35.52 152 112 011828039036MS2FRA 292 0:30:08.9 3,0 164 1:18:08.4 31,5 130 0:45:18.1 13,2
160 360 VERLEYEN Aurélien MSE ANTONY NATATION SECTION TRIATHLON 2:33:38.37 153 113 0117984890840S2FRA 131 0:26:26.6 3,4 231 1:20:52.3 30,4 147 0:46:19.3 13,0
161 329 DIRINGER Francis MV2 CLUB DES NAGEURS DE PARIS 2:33:42.94 154 12 010150517652MV2FRA 90 0:25:22.4 3,5 161 1:18:03.2 31,5 239 0:50:17.2 11,9
162 86 MAC DINH Romain MSE UNION ATHLETIQUE SOCIETE GENERALE 2:33:46.76 155 114 LICENCE EN COURS 251 0:28:58.9 3,1 144 1:17:29.1 31,7 176 0:47:18.6 12,7
163 287 ALONSO Arnaud MSE E.C. SARTROUVILLE 2:33:49.88 156 115 010816889836MS4FRA 30 0:22:28.8 4,0 69 1:13:12.2 33,6 380 0:58:08.8 10,3
164 286 WARIN Thierry MV2 E.S. RENAULT TRIATHLON 2:34:04.59 157 13 012137995623MV2FRA 336 0:31:31.7 2,9 182 1:18:46.7 31,2 86 0:43:46.0 13,7
165 381 FRANCIS NICOLAS MV1 A.S. CORBEIL-ESSONNES TRIATHLON 2:34:14.78 158 19 011236738050MV1FRA 117 0:26:06.3 3,4 241 1:21:35.8 30,1 153 0:46:32.5 12,9
166 391 DA SILVA FARIA Olivier MV1 A.N.S.A 2:34:17.90 159 20 011107355536MV1FRA 318 0:31:06.8 2,9 166 1:18:12.2 31,5 121 0:44:58.8 13,3
167 148 FONTAINE Jérome MSE TRIATHLON 91 2:34:36.07 160 116 010168612032MS4FRA 48 0:23:21.9 3,9 188 1:19:04.2 31,1 274 0:52:09.8 11,5
168 297 ONALI Lucien MV1 DRANCY TRIATHLON 2:34:40.65 161 21 012027465232MV1FRA 71 0:24:25.0 3,7 245 1:21:43.8 30,1 196 0:48:31.8 12,4
169 458 LE GARZIC Pierre MSE   2:34:46.27 162 117   238 0:28:37.5 3,1 142 1:17:23.4 31,8 199 0:48:45.2 12,3
170 95 GALTIÉ Alban MSE U.S.O. BEZONS 2:34:48.56 163 118 011287832184MS1FRA 139 0:26:38.6 3,4 70 1:13:16.4 33,6 332 0:54:53.4 10,9
171 373 THEVENET Joel MV1 A.S.M BOUYGUES 2:34:49.53 164 22   303 0:30:26.5 3,0 181 1:18:44.6 31,2 136 0:45:38.2 13,1
172 308 DODET Raphael MSE COURBEVOIE TRIATHLON 2:34:49.95 165 119 011825789999MS3FRA 122 0:26:11.8 3,4 204 1:19:47.6 30,8 201 0:48:50.5 12,3
173 127 MORON Florian MSE TRIATHLON SANNOIS FRANCONVILLE 2:34:52.86 166 120 011788379236MS2FRA 226 0:28:23.9 3,2 68 1:13:00.5 33,7 301 0:53:28.2 11,2
174 125 MERRIEN Philippe MSE TRIATHLON SANNOIS FRANCONVILLE 2:34:54.18 167 121 011785993799MS4FRA 199 0:27:46.6 3,2 149 1:17:42.7 31,7 221 0:49:24.8 12,1
175 207 CLAIRET Benjamin MSE RED STAR CLUB CHAMPIGNY 2:34:55.98 168 122 010447265853MS4FRA 73 0:24:29.2 3,7 268 1:22:55.3 29,7 180 0:47:31.4 12,6
176 290 CHARRON Quentin MSE E.C. SARTROUVILLE 2:34:58.40 169 123 010818381799MS2FRA 317 0:31:04.3 2,9 197 1:19:28.0 31,0 110 0:44:25.9 13,5
177 415 CHAILLOU Ludovic MSE   2:35:07.14 170 124   384 0:33:22.2 2,7 147 1:17:33.4 31,7 100 0:44:11.5 13,6
178 204 ABOULKHEIR Michael MV1 RED STAR CLUB CHAMPIGNY 2:35:15.33 171 23 010447267731MV1FRA 232 0:28:32.1 3,2 209 1:19:58.5 30,8 158 0:46:44.6 12,8
179 152 PAROT Jérome MSE TRIATHLON 91 2:35:21.09 172 125 010168173547MS3FRA 137 0:26:37.8 3,4            
180 371 LE NAGARD Christophe MV1 A.S.M BOUYGUES 2:35:35.44 173 24 011486542499MV1FRA 264 0:29:11.5 3,1 152 1:17:46.7 31,6 197 0:48:37.1 12,3
181 233 BOYER Stephane MSE NOGENT SOLIDARITE TRIATHLON 2:35:39.88 174 126 01205817313MS4FRA 299 0:30:17.7 3,0 227 1:20:38.3 30,5 118 0:44:43.7 13,4
182 88 RUSSO Philippe MV2 UNION ATHLETIQUE SOCIETE GENERALE 2:35:45.01 175 14 011437197536MV2FRA 315 0:31:02.1 2,9 172 1:18:24.1 31,4 146 0:46:18.7 13,0
183 175 DE MÉZERAC Edouard MSE STADE FRANCAIS 2:35:45.72 176 127 010396737636MS2FRA 105 0:25:47.8 3,5 148 1:17:33.5 31,7 278 0:52:24.3 11,4
184 340 NEVEU Jerome MSE BEAUVAIS TRIATHLON 2:36:03.12 177 128 030285188243MS3FRA 87 0:25:17.1 3,6 228 1:20:40.8 30,5 234 0:50:05.0 12,0
185 66 BEURNAUX Guillaume MSE VILLEPINTE TRIATHLON 93 2:36:09.99 178 129 010862535499MS4FRA 192 0:27:36.0 3,3 238 1:21:20.4 30,2 175 0:47:13.5 12,7
186 199 TAUPIN Xavier MV3 S.C.A. 2000 TRIATHLON EVRY 2:36:16.01 179 7 010115307599MV3FRA 169 0:27:06.1 3,3 206 1:19:53.2 30,8 213 0:49:16.6 12,2
187 147 DANGOISSE Olivier MV2 TRIATHLON 91 2:36:30.31 180 15 010160118736MV2FRA 257 0:29:03.9 3,1 229 1:20:46.5 30,5 155 0:46:39.7 12,9
188 63 SAINTE-MARIE Philippe MSE VMT - VALLEE DE MONTMORENCY TRIATHLON 2:36:31.97 181 130 011387979731MS2FRA 368 0:32:15.5 2,8 201 1:19:38.3 30,9 116 0:44:38.0 13,4
189 277 LOUIS Regis MSE ENTENTE SPORTIVE NANTERRE 2:36:34.67 182 131 010535477652MS3FRA 92 0:25:26.2 3,5 244 1:21:41.7 30,1 222 0:49:26.6 12,1
190 180 GUIGO Jean-guillaume MSE STADE FRANCAIS 2:36:39.25 183 132 010398041153MS4FRA             59 0:42:29.4 14,1
191 211 KURTZ Alexandre MSE RED STAR CLUB CHAMPIGNY 2:36:41.89 184 133 010443941623MS3FRA 357 0:32:02.0 2,8 170 1:18:20.4 31,4 148 0:46:19.4 13,0
192 109 NEAU Jean-hervé MSE TRICEPS 2:36:50.83 185 134 011756472536MS4FRA 433 0:35:33.2 2,5 151 1:17:45.8 31,6 79 0:43:31.8 13,8
193 248 MYARA Jacoby MV3 LAGARDERE PARIS RACING 2:36:53.33 186 8 010080081999MV3FRA 99 0:25:35.0 3,5 254 1:22:15.6 29,9 207 0:49:02.6 12,2
194 185 VANDI Mario MSE STADE FRANCAIS 2:37:05.13 187 135 010398041636MS4FRA 184 0:27:22.8 3,3 192 1:19:10.9 31,1 245 0:50:31.3 11,9
195 229 VIAUD Julien MSE PARIS SPORT CLUB 2:37:07.27 188 136 010758581736MS2FRA 293 0:30:09.4 3,0 189 1:19:04.9 31,1 182 0:47:52.8 12,5
196 379 FOURNERIE Laurent MSE A.S. CORBEIL-ESSONNES TRIATHLON 2:37:25.65 189 137 011235354936MS4FRA 133 0:26:30.7 3,4 186 1:19:02.2 31,1 269 0:51:52.6 11,6
197 370 KERDILES Eric MSE A.S.M BOUYGUES 2:37:30.09 190 138 011486346236MV1FRA 86 0:25:11.4 3,6 218 1:20:12.0 30,7 272 0:52:06.5 11,5
198 430 DURAND Nicolas MSE   2:37:32.17 191 139   154 0:26:53.5 3,3 246 1:21:44.6 30,1 203 0:48:53.9 12,3
199 92 COEURDACIER Julien MSE U.S.O. BEZONS 2:37:45.97 192 140 011286804842MS2FRA 113 0:26:00.6 3,5 150 1:17:44.0 31,6 317 0:54:01.2 11,1
200 195 LHUILLERY Jean-denys MSE S.O. HOUILLES TRIATHLON 2:38:02.20 193 141 010068171447MS4FRA 135 0:26:36.1 3,4 299 1:24:14.8 29,2 172 0:47:11.1 12,7
201 459 LEGENDRE Charles MSE   2:38:08.58 194 142   241 0:28:39.4 3,1 185 1:19:01.5 31,1 243 0:50:27.6 11,9
202 288 BAILLON Yoann MSE E.C. SARTROUVILLE 2:38:09.90 195 143 010818382132MS3FRA 244 0:28:46.2 3,1 168 1:18:13.6 31,4 257 0:51:10.0 11,7
203 14 ROUSSIER Josiane FSE TRIATHLON CLUB ST QUENTIN EN YVEL. 2:38:16.98 8 6 011467935436FS3FRA 100 0:25:41.7 3,5 216 1:20:10.7 30,7 279 0:52:24.4 11,4
204 259 FOUQUET Stéphane MSE FREE IRON TEAM 2:38:20.85 196 144 040314726636MS4FRA 217 0:28:12.7 3,2 271 1:22:56.2 29,7 174 0:47:11.8 12,7
205 33 PICHAYROU Barbara FSE LEVALLOIS TRIATHLON 2:38:22.25 9 7 011137571336FS3FRA 146 0:26:46.4 3,4 296 1:24:08.1 29,2 179 0:47:27.6 12,6
206 424 DI BENEDETTO Aldo MV3   2:38:22.87 197 9   398 0:33:48.8 2,7 207 1:19:54.6 30,8 117 0:44:39.3 13,4
207 60 PALMA PENA Camilo MSE VMT - VALLEE DE MONTMORENCY TRIATHLON 2:38:25.92 198 145 011386696036MS3FRA 340 0:31:35.9 2,8 154 1:17:48.1 31,6 206 0:49:01.8 12,2
208 493 TURPIN Xavier MSE   2:38:27.94 199 146   307 0:30:35.5 2,9 205 1:19:53.1 30,8 185 0:47:59.2 12,5
209 416 CLAIMAND Sylvain MSE   2:38:37.58 200 147   233 0:28:32.6 3,2 193 1:19:23.5 31,0 247 0:50:41.4 11,8
210 38 EL MOKADDEM Naima FSE COURBEVOIE TRIATHLON 2:38:39.86 10 8 011822456452FS3FRA 188 0:27:31.3 3,3 301 1:24:17.0 29,2 163 0:46:51.4 12,8
211 193 GUYOMAR Patrick MV3 S.O. HOUILLES TRIATHLON 2:38:41.45 201 10 010060075142MV3FRA 385 0:33:24.3 2,7 171 1:18:21.5 31,4 166 0:46:55.5 12,8
212 393 BRAMS Alain MV2 A.A.S. FRESNES TRIATHLON 2:38:47.56 202 16 010634769147MV2FRA 88 0:25:17.9 3,6 281 1:23:23.3 29,5 235 0:50:06.3 12,0
213 104 RAGOT Christophe MV1 TRINOSAURE 2:38:51.03 203 25 010012607031MV1FRA 57 0:23:41.4 3,8 248 1:21:52.2 30,0 297 0:53:17.3 11,3
214 319 VIOLET Jean Paul MV2 COURBEVOIE TRIATHLON 2:38:52.07 204 17 011827361736MV2FRA 354 0:31:55.1 2,8 212 1:20:03.3 30,7 164 0:46:53.5 12,8
215 149 FOUSSAT Didier MV1 TRIATHLON 91 2:39:13.08 205 26 010161606648MV1FRA 134 0:26:35.8 3,4 200 1:19:31.9 30,9 292 0:53:05.2 11,3
216 320 ALBI Didier MV2 CLUB YERROIS DE TRIATHLON 91 2:39:26.54 206 18 010545141436MV2FRA 281 0:29:52.3 3,0 284 1:23:29.4 29,5 143 0:46:04.7 13,0
217 300 ROBERT Philippe MV2 DASSAULT SPORT 2:39:34.44 207 19 011298378836MV2FRA 393 0:33:39.7 2,7 260 1:22:32.8 29,8 76 0:43:21.8 13,8
218 486 SIGOIGNE Laurent MV2   2:39:36.45 208 20   101 0:25:42.0 3,5 280 1:23:19.6 29,5 246 0:50:34.7 11,9
219 253 COUDIN Francis MSE INVIDUEL(LE) 2:39:37.92 209 148 010007929632MS4FRA 401 0:33:58.3 2,6 219 1:20:13.0 30,7 132 0:45:26.4 13,2
220 485 SENECHAL Michel MV5   2:39:41.59 210 1   319 0:31:07.6 2,9 180 1:18:43.5 31,2 229 0:49:50.4 12,0
221 145 AIDAT Kamal MV1 TRIATHLON CLUB IBM PARIS 2:39:48.73 211 27 011365863236MV1FRA 178 0:27:13.9 3,3 253 1:22:15.1 29,9 240 0:50:19.5 11,9
222 221 EVRARD Pascal MV2 POISSY TRIATHLON 2:39:50.94 212 21 01020T443236MV2FRA 333 0:31:29.4 2,9 249 1:21:58.4 30,0 150 0:46:23.0 12,9
223 403 BECQUET Samuel MSE   2:39:54.28 213 149   381 0:33:13.7 2,7 173 1:18:28.5 31,3 187 0:48:12.0 12,4
224 490 THAL David MSE   2:39:58.79 214 150   197 0:27:42.0 3,2 250 1:22:01.0 30,0 238 0:50:15.7 11,9
225 78 ESCOURIDO VIGO Christophe MSE US PALAISEAU TRIATHLON 2:40:01.08 215 151 10364243060 425 0:34:51.3 2,6 174 1:18:28.9 31,3 157 0:46:40.8 12,9
226 335 CASTANO Valentin MV1 C.A.O. SAINT-CYR 2:40:14.39 216 28 010407967750MV1FRA 376 0:32:48.8 2,7 177 1:18:34.8 31,3 202 0:48:50.6 12,3
227 110 BERNARD Jean-marie MV1 TRIATHLON SANNOIS FRANCONVILLE 2:40:19.73 217 29 011788629150MV1FRA 360 0:32:07.6 2,8 202 1:19:42.4 30,9 194 0:48:29.6 12,4
228 176 DORO Jean Luc MV2 STADE FRANCAIS 2:40:20.77 218 22 010395133231MV2FRA 216 0:28:12.1 3,2 255 1:22:19.0 29,9 227 0:49:49.5 12,0
229 96 PARANT André MV2 U.S.O. BEZONS 2:40:25.00 219 23 0112883822847MV2FRA 286 0:30:00.2 3,0 159 1:17:52.6 31,6 282 0:52:32.0 11,4
230 281 HIS Bruno MV1 E.S.M. GONFREVILLE L'ORCHER 2:40:37.13 220 30 190045085160MV1FRA 328 0:31:24.7 2,9 208 1:19:55.3 30,8 214 0:49:17.0 12,2
231 388 SOUCHET Jeremy MSE A.S. CORBEIL-ESSONNES TRIATHLON 2:40:40.25 221 152 011238385843MS2FRA 344 0:31:39.8 2,8 274 1:23:01.4 29,6 141 0:45:58.9 13,0
232 205 BICHET Sébastien MSE RED STAR CLUB CHAMPIGNY 2:40:41.99 222 153 010447942636MS4FRA 454 0:36:51.5 2,4 138 1:17:10.1 31,9 156 0:46:40.2 12,9
233 157 BRELOT Marc MV1 TRI.CLUB ISSY LES MOULINEAUX 2:40:56.97 223 31 010625494636MV1FRA 115 0:26:02.9 3,5 233 1:21:02.3 30,4 312 0:53:51.6 11,1
234 29 ROFFI REGIS MSE   2:41:04.46 224 154 010445883048MS4FRA 309 0:30:50.6 2,9 213 1:20:04.6 30,7 237 0:50:09.1 12,0
235 291 DURET Germain MSE E.C. SARTROUVILLE 2:41:11.11 225 155   72 0:24:25.6 3,7 313 1:25:29.1 28,8 260 0:51:16.3 11,7
236 318 SCHAKER Stéphane MV2 COURBEVOIE TRIATHLON 2:41:19.08 226 24 011827361636MV2FRA 450 0:36:42.0 2,5 224 1:20:28.5 30,6 99 0:44:08.4 13,6
237 79 CHOMEL Arthur MSE UNION ATHLETIQUE SOCIETE GENERALE 2:41:26.51 227 156 011438642836MS2FRA 409 0:34:13.9 2,6 155 1:17:50.5 31,6 217 0:49:21.9 12,2
238 299 BONFILLON Vincent MSE DASSAULT SPORT 2:41:40.10 228 157 LICENCE EN COURS 361 0:32:08.7 2,8            
239 463 MAHE Bruno MV1   2:41:59.86 229 32   402 0:34:01.2 2,6 136 1:17:07.3 31,9 253 0:50:51.2 11,8
240 186 VINCENT Benoît MSE STADE FRANCAIS 2:42:01.80 230 158 010398477623MS4FRA 212 0:28:03.7 3,2 294 1:23:59.8 29,3 231 0:49:58.1 12,0
241 153 RUBY Gregory MSE TRIATHLON 91 2:42:03.11 231 159 010168173436MS1FRA 273 0:29:34.3 3,0 279 1:23:18.7 29,5 211 0:49:10.0 12,2
242 409 BOIS David MV1   2:42:14.15 232 33   268 0:29:18.1 3,1 217 1:20:11.5 30,7 285 0:52:44.4 11,4
243 341 DIEN Frederic MSE BEAUMONT TRIATHLON 2:42:34.39 233 160 010598490848MS4FRA 270 0:29:28.1 3,1 191 1:19:08.9 31,1 315 0:53:57.2 11,1
244 331 LEFEVRE Thierry MV1 CHESSY TRIATHLON VAL D EUROPE 2:43:00.54 234 34 011087981723MV1FRA 320 0:31:11.4 2,9 232 1:20:55.7 30,4 254 0:50:53.3 11,8
245 243 RENARD Jean-francois MV2 LES LIONS DE SAINT-MARCEL 2:43:06.43 235 25 190266450136MV2FRA 269 0:29:27.5 3,1 237 1:21:19.0 30,3 277 0:52:19.8 11,5
246 444 GUYOT Edouard MSE   2:43:08.58 236 161   338 0:31:33.6 2,9 298 1:24:12.4 29,2 178 0:47:22.4 12,7
247 446 HERMABESSIERE Jerome MSE   2:43:11.07 237 162   302 0:30:21.7 3,0            
248 266 BERTHO Jean-marie MV1 ESPERANCE CHARTRES DE BRETAGNE TRI 2:43:13.86 238 35 210534194936MV1FRA 295 0:30:11.4 3,0 247 1:21:48.7 30,1 259 0:51:13.7 11,7
249 375 CANNONVILLE Francois MSE A.S. CORBEIL-ESSONNES TRIATHLON 2:43:18.28 239 163 011235423148MS3FRA 176 0:27:12.9 3,3 291 1:23:53.0 29,3 275 0:52:12.2 11,5
250 116 FAIDEAU Ludovic MSE TRIATHLON SANNOIS FRANCONVILLE 2:43:25.08 240 164 011788378936MS3FRA 296 0:30:14.7 3,0 243 1:21:40.2 30,1 264 0:51:30.0 11,7
251 304 BARNETCHE Philippe MSE COURBEVOIE TRIATHLON 2:43:25.91 241 165 011827224436MS3FRA 276 0:29:42.4 3,0 210 1:20:01.6 30,7 306 0:53:41.7 11,2
252 44 COLAS Sandrine FSE ANTONY NATATION SECTION TRIATHLON 2:43:28.63 11 9 011794617332FS4FRA 205 0:27:52.8 3,2 309 1:25:10.2 28,9 241 0:50:25.5 11,9
253 306 DELANNOY Jean Francois MV3 COURBEVOIE TRIATHLON 2:43:33.47 242 11 011825958631MV3FRA 112 0:26:00.4 3,5 287 1:23:36.5 29,4 314 0:53:56.4 11,1
254 20 HODGIN Jennifer FSE STADE FRANCAIS 2:43:45.47 12 10 010397833236FS3AME 172 0:27:10.1 3,3 256 1:22:20.8 29,9 319 0:54:14.4 11,1
255 408 BODIC François MSE   2:43:50.05 243 166   193 0:27:38.1 3,3 226 1:20:34.1 30,5 346 0:55:37.7 10,8
256 15 LE MENÉ Lénaïck FSE TOCC TRIATHLON CESSON SEVIGNE 35 2:43:51.23 13 11 210427454336FS2FRA 213 0:28:04.6 3,2 327 1:26:29.4 28,4 215 0:49:17.1 12,2
257 301 LE YOUDEC Jérome MSE CREPY TRIATHLON 2:43:54.76 244 167 030304566852MS3FRA 415 0:34:20.6 2,6 190 1:19:06.2 31,1 244 0:50:27.8 11,9
258 367 DU CREST Martin MSE A.S.M BOUYGUES 2:43:57.40 245 168   214 0:28:07.9 3,2 234 1:21:03.5 30,3 330 0:54:45.8 11,0
259 172 RIVART Yann MSE T.N.T. EZANVILLE 2:44:04.40 246 169 011068377252MS2FRA 171 0:27:07.6 3,3 317 1:25:43.3 28,7 258 0:51:13.4 11,7
260 315 PLASSE Richard MSE COURBEVOIE TRIATHLON 2:44:11.89 247 170 011828037650MS4NZE 452 0:36:47.5 2,4 195 1:19:25.2 31,0 184 0:47:59.0 12,5
261 412 BUFFE Julien MSE   2:44:15.77 248 171   29 0:22:08.8 4,1 288 1:23:41.1 29,4 385 0:58:25.7 10,3
262 119 JACQUOT Jean-marc MV1 TRIATHLON SANNOIS FRANCONVILLE 2:44:23.69 249 36 011787247036MV1FRA 219 0:28:17.0 3,2 178 1:18:40.0 31,3 368 0:57:26.5 10,4
263 268 LAMBERT Hervé MV1 EPPG TRIATHLON CLUB 93 2:44:38.38 250 37 011592457736MV1FRA 64 0:23:44.9 3,8 239 1:21:29.5 30,2 394 0:59:23.8 10,1
264 383 POCHON Jean-luc MV4 A.S. CORBEIL-ESSONNES TRIATHLON 2:44:40.95 251 3 011237674299MV4FRA 301 0:30:21.5 3,0 266 1:22:46.9 29,7 265 0:51:32.4 11,6
265 456 LATTES David MV1   2:44:42.47 252 38   223 0:28:21.1 3,2 349 1:28:03.3 27,9 192 0:48:18.0 12,4
266 404 BELNOUE Alexandre MSE   2:45:05.29 253 172   249 0:28:58.0 3,1 336 1:26:57.1 28,3 212 0:49:10.1 12,2
267 230 GABALDA Philippe MSE OTC 45 2:45:07.02 254 173 170368454350MS4FRA 386 0:33:27.9 2,7 273 1:23:00.5 29,6 198 0:48:38.4 12,3
268 198 RONDEAU Aurélien MSE S.C.A. 2000 TRIATHLON EVRY 2:45:28.66 255 174 010117578460MS2FRA 177 0:27:13.7 3,3 277 1:23:05.1 29,6 342 0:55:09.7 10,9
269 163 MILIN Mathieu MSE TRI.CLUB ISSY LES MOULINEAUX 2:45:31.78 256 175 010627984236MS2FRA 151 0:26:51.1 3,4 346 1:27:52.5 28,0 251 0:50:48.1 11,8
270 210 JOUBAUD Patrick MSE RED STAR CLUB CHAMPIGNY 2:45:38.85 257 176 010446662899MS4FRA 416 0:34:25.0 2,6 272 1:22:57.8 29,7 191 0:48:15.9 12,4
271 31 PROTAIN Elise FSE RED STAR CLUB CHAMPIGNY 2:45:45.51 14 12 010445913199FS2FRA 156 0:26:54.6 3,3 267 1:22:54.7 29,7 353 0:55:56.1 10,7
272 365 REGAZACCI Jean-marc MV3 A.S.P.S SENART TRIATHLON 2:46:04.30 258 12 012125419899MV3FRA 314 0:30:58.1 2,9 169 1:18:14.0 31,4 363 0:56:52.1 10,6
273 161 GORWOOD Philip MV2 TRI.CLUB ISSY LES MOULINEAUX 2:46:09.03 259 26 010628378332MV2FRA 250 0:28:58.9 3,1 252 1:22:11.5 29,9 334 0:54:58.4 10,9
274 326 LE GALL Arnaud MSE CLUB SPORTIF ET DE LOISIR DE DRANCY 2:46:17.48 260 177 012027981036MS2FRA 380 0:33:12.4 2,7 221 1:20:18.4 30,6 286 0:52:46.5 11,4
275 30 MOUTOUSSAMY Diane FSE RED STAR CLUB CHAMPIGNY 2:46:25.38 15 13 010444206050FS3FRA 179 0:27:14.6 3,3 295 1:24:01.8 29,3 341 0:55:08.8 10,9
276 482 ROUSSET Simon MSE   2:46:26.63 261 178   363 0:32:10.4 2,8 300 1:24:15.0 29,2 232 0:50:01.1 12,0
277 310 GODART Pascal MV2 COURBEVOIE TRIATHLON 2:46:31.90 262 27 011827361360MV2FRA 356 0:31:57.7 2,8 319 1:25:45.1 28,7 200 0:48:48.9 12,3
278 452 KOWALSKI Alexandre MV1   2:46:36.00 263 39   312 0:30:53.6 2,9 262 1:22:38.7 29,8 291 0:53:03.6 11,3
279 359 TACHON Pierre MV3 ANTONY NATATION SECTION TRIATHLON 2:46:38.07 264 13 011797480432MV3FRA 370 0:32:19.9 2,8 305 1:24:53.3 29,0 219 0:49:24.7 12,1
280 196 TETEDOIE Mickael MSE S.O. HOUILLES TRIATHLON 2:46:41.06 265 179 010067464536MS4FRA 345 0:31:41.7 2,8 315 1:25:37.0 28,7 218 0:49:22.2 12,2
281 273 CERA Eric MSE ENTENTE SPORTIVE NANTERRE 2:46:44.80 266 180 010536964336MS4FRA 441 0:36:18.3 2,5 285 1:23:31.0 29,5 165 0:46:55.3 12,8
282 135 TERNOIR Jacky MV4 TRIATHLON CLUB TORCY 2:46:48.06 267 4 010585915750MV4FRA 256 0:29:03.0 3,1 265 1:22:44.6 29,7 335 0:55:00.2 10,9
283 62 ROCHIER Eric MSE VMT - VALLEE DE MONTMORENCY TRIATHLON 2:46:53.19 268 181 011388384442MS4FRA 278 0:29:47.4 3,0 258 1:22:23.6 29,9 328 0:54:42.0 11,0
284 311 GORDON Olivier MSE COURBEVOIE TRIATHLON 2:47:06.78 269 182 011828035347MS4FRA 327 0:31:24.0 2,9 203 1:19:43.1 30,9 355 0:55:59.6 10,7
285 160 GASQUET Raphael MSE TRI.CLUB ISSY LES MOULINEAUX 2:47:27.17 270 183 010626702336MS4FRA 285 0:29:59.1 3,0 328 1:26:31.3 28,4 255 0:50:56.6 11,8
286 146 VARET Laurent MV3 TRIATHLON CLUB IBM PARIS 2:47:31.82 271 14 011362594736MV3FRA 259 0:29:04.9 3,1 312 1:25:25.2 28,8 290 0:53:01.6 11,3
287 115 ENFERT Pascal MV1 TRIATHLON SANNOIS FRANCONVILLE 2:47:37.36 272 40 011786807336MV1FRA 168 0:27:04.6 3,3 282 1:23:23.3 29,5 367 0:57:09.4 10,5
288 352 JOUANNE Sebastien MSE ASCC.RAMBOUILLET OLYMPIQUE 2:47:40.77 273 184 010177355736MS4FRA 158 0:26:57.8 3,3 333 1:26:46.5 28,3 313 0:53:56.3 11,1
289 228 LOUX Christophe MSE PARIS SPORT CLUB 2:47:49.08 274 185 010756530599MS4FRA 399 0:33:55.7 2,7 225 1:20:32.2 30,5 299 0:53:21.1 11,2
290 46 GASTE Isabelle FV2   2:47:50.88 16 1   136 0:26:36.5 3,4 378 1:30:11.1 27,3 256 0:51:03.1 11,8
291 208 COUDER Samy MSE RED STAR CLUB CHAMPIGNY 2:48:03.58 275 186 010447272442MS4FRA 421 0:34:41.3 2,6 235 1:21:07.7 30,3 276 0:52:14.5 11,5
292 232 LESIMPLE Eric MV1 OTC 45 2:48:06.36 276 41 170368454648MV1FRA 289 0:30:06.4 3,0 330 1:26:39.0 28,4 261 0:51:20.7 11,7
293 401 BAROTTE Olivier MSE   2:48:09.82 277 187   186 0:27:28.3 3,3 345 1:27:49.9 28,0 288 0:52:51.6 11,4
294 471 METAYER Stéphane MV1   2:48:16.62 278 42   253 0:29:00.9 3,1 304 1:24:33.2 29,1 329 0:54:42.4 11,0
295 450 JOAO Jean-claude MSE   2:48:18.83 279 188   447 0:36:27.8 2,5 270 1:22:56.2 29,7 204 0:48:54.7 12,3
296 498 VUILLERMET Thibault MSE   2:48:19.04 280 189   118 0:26:07.7 3,4 325 1:26:19.8 28,5 351 0:55:51.4 10,7
297 392 BEAUBOIS Roland MV2 A.A.S. FRESNES TRIATHLON 2:48:24.11 281 28 010633020531MV2FRA 325 0:31:20.0 2,9 236 1:21:14.4 30,3 350 0:55:49.6 10,7
298 143 MULLER Stéphane MV1 TRIATHLON CLUB ST QUENTIN EN YVEL. 2:48:27.51 282 43 011467468636MV1FRA 183 0:27:22.6 3,3 367 1:29:19.6 27,5 267 0:51:45.1 11,6
299 75 GOSSELIN Christophe MSE VAL DE REUIL TRIATHLON 2:48:33.96 283 190 190057640960MS4FRA 230 0:28:30.3 3,2 334 1:26:49.4 28,3 295 0:53:14.2 11,3
300 399 BARADAT Luc-henri MV1   2:48:36.66 284 44   396 0:33:44.3 2,7 263 1:22:43.2 29,7 273 0:52:09.0 11,5
301 428 DU RIVAU Eudes MV1   2:48:40.12 285 45   389 0:33:34.3 2,7 362 1:29:04.5 27,6 142 0:46:01.1 13,0
302 423 DEMUYNCK Jean-francois MSE   2:48:49.42 286 191   161 0:26:59.5 3,3 251 1:22:06.7 30,0 396 0:59:43.0 10,0
303 194 HULOT Denis MV2 S.O. HOUILLES TRIATHLON 2:48:57.12 287 29 010066715832MV2FRA 274 0:29:36.5 3,0 293 1:23:58.8 29,3 345 0:55:21.7 10,8
304 500 DUTILLEUL FRANCOEUR Philippe MSE   2:48:59.68 288 192   170 0:27:06.9 3,3 399 1:32:00.0 26,7 230 0:49:52.6 12,0
305 102 LECLERCQ Frank MV2 U.S. CRETEIL TRIATHLON 2:49:01.14 289 30 010224231950MV2FRA 306 0:30:33.4 2,9 359 1:28:46.8 27,7 224 0:49:40.7 12,1
306 17 DESBOIS Caroline FV1 T.N.T. EZANVILLE 2:49:05.51 17 3 011066419499FV1FRA 405 0:34:07.7 2,6 308 1:25:08.1 28,9 228 0:49:49.6 12,0
307 422 DECORI Charles-philippe MV1   2:49:38.94 290 46   284 0:29:58.4 3,0 376 1:29:57.3 27,3 225 0:49:43.1 12,1
308 354 MARTIN Remi MJU ASCC.RAMBOUILLET OLYMPIQUE 2:49:45.81 291 4 010177962284MJUFRA 412 0:34:19.2 2,6 283 1:23:24.9 29,5 271 0:52:01.5 11,5
309 282 CARDINALI Christophe MSE E.S. RENAULT TRIATHLON 2:49:49.34 292 193 012138610136MS3FRA 413 0:34:19.5 2,6 276 1:23:04.9 29,6 280 0:52:24.8 11,4
310 105 WHITE Jc MV1 TRINOSAURE 2:50:01.14 293 47 010017359523MV1FRA 229 0:28:28.2 3,2 324 1:26:11.6 28,5 344 0:55:21.2 10,8
311 118 ILES Harry MV1   2:50:07.73 294 48   406 0:34:08.2 2,6 275 1:23:01.5 29,6 289 0:52:57.9 11,3
312 419 CORNE-VINEY Nicolas MSE   2:50:26.60 295 194   185 0:27:23.9 3,3 354 1:28:26.3 27,8 325 0:54:36.3 11,0
313 407 BLANZAT Xavier MSE   2:50:35.61 296 195   243 0:28:45.9 3,1 351 1:28:06.1 27,9 308 0:53:43.5 11,2
314 188 MARCHAL Jerome MSE SENS TRIATHLON 2:50:36.38 297 196 220596279036MS4FRA 353 0:31:54.1 2,8 261 1:22:35.6 29,8 356 0:56:06.6 10,7
315 254 DERVILLE Pascal MSE INVIDUEL(LE) 2:50:46.58 298 197 010003545836MS4FRA 143 0:26:44.5 3,4 381 1:30:37.7 27,1 300 0:53:24.2 11,2
316 410 BOTTINELLI Louis MV4   2:50:51.77 299 5   467 0:38:26.0 2,3 242 1:21:40.2 30,1 250 0:50:45.5 11,8
317 453 LACOMBE Antoine MSE   2:50:59.69 300 198   383 0:33:20.8 2,7 290 1:23:50.1 29,3 311 0:53:48.6 11,2
318 454 LAFON Alexandre MSE   2:51:12.80 301 199   375 0:32:48.6 2,7 303 1:24:26.2 29,1 316 0:53:57.8 11,1
319 184 PAUDOS Christian MV2 STADE FRANCAIS 2:51:16.07 302 31 010390183642MV2FRA 282 0:29:53.1 3,0 332 1:26:44.9 28,4 326 0:54:38.0 11,0
320 182 LOUIS `MARIE Guy Claude MV1 STADE FRANCAIS 2:51:21.20 303 49 010398380943MV1FRA 321 0:31:14.4 2,9 310 1:25:12.7 28,9 333 0:54:53.9 10,9
321 43 MIQUEL Sophie FSE BEAUMONT TRIATHLON 2:51:26.89 18 14 010598550036FS4FRA 351 0:31:50.1 2,8 370 1:29:29.9 27,5 236 0:50:06.8 12,0
322 165 CAMPOY Patrick MV2 TEAM TRIPASSION 2:51:53.82 304 32 011856424499MV2FRA 369 0:32:18.9 2,8 326 1:26:26.7 28,5 294 0:53:08.0 11,3
323 99 CHAMBOLLE Jean-luc MV2 U.S. IVRY TRIATHLON 2:52:03.54 305 33 010777356532MV2FRA 364 0:32:11.9 2,8 292 1:23:58.3 29,3 352 0:55:53.2 10,7
324 480 RIQUARD Olivier MSE   2:52:04.93 306 200   394 0:33:40.5 2,7 342 1:27:34.4 28,1 252 0:50:49.9 11,8
325 307 DEVILLE Charles MSE COURBEVOIE TRIATHLON 2:52:12.29 307 201 011828035836MS2FRA 175 0:27:11.4 3,3 331 1:26:42.6 28,4 382 0:58:18.2 10,3
326 82 JEANROY Claude MV5 UNION ATHLETIQUE SOCIETE GENERALE 2:52:16.52 308 2 011432398270MV5FRA 358 0:32:06.7 2,8 240 1:21:31.7 30,2 386 0:58:37.9 10,2
327 137 AILLET Grégory MSE TRIATHLON CLUB ST QUENTIN EN YVEL. 2:52:17.50 309 202 011467467836MS3FRA 444 0:36:22.0 2,5 320 1:25:53.4 28,6 233 0:50:01.9 12,0
328 344 PIGNE Etienne MV1 ATHLETIC CLUB BOULOGNE BILLANCOURT 2:52:21.72 310 50 011377860799MV1FRA 207 0:27:55.5 3,2 323 1:26:10.3 28,5 381 0:58:15.7 10,3
329 372 PAPON Francois MSE A.S.M BOUYGUES 2:52:41.10 311 203 011487524136MS4FRA 211 0:28:03.3 3,2 314 1:25:30.3 28,8 392 0:59:07.3 10,1
330 348 CAREL Thierry MV1 ASS SPORTIVE CREDIT FONCIER 2:52:43.18 312 51 011977127436MV1FRA 215 0:28:12.0 3,2 368 1:29:23.7 27,5 339 0:55:07.4 10,9
331 40 LINOSSIER Valerie FSE COURBEVOIE TRIATHLON 2:52:44.71 19 15 011828038336FS3FRA 332 0:31:29.0 2,9 322 1:26:09.6 28,6 338 0:55:05.9 10,9
332 477 RAMADE David MSE   2:52:49.01 313 204   464 0:38:14.0 2,4 297 1:24:08.7 29,2 242 0:50:26.2 11,9
333 269 LOQUIER Benoit MV1 EPPG TRIATHLON CLUB 93 2:53:09.08 314 52 011597810536MV1FRA 261 0:29:07.9 3,1 335 1:26:56.0 28,3 365 0:57:05.0 10,5
334 126 MOLINARO Loris MV5 TRIATHLON SANNOIS FRANCONVILLE 2:53:16.45 315 3 011780327623MV5ITA 142 0:26:42.7 3,4 289 1:23:47.1 29,4 423 1:02:46.5 9,6
335 271 TORA Jean-marc MV3 EPPG TRIATHLON CLUB 93 2:53:22.14 316 15 011592913036MV3FRA 367 0:32:15.2 2,8 286 1:23:33.1 29,4 369 0:57:33.6 10,4
336 464 MARIE Gérard MSE   2:53:24.08 317 205   324 0:31:19.1 2,9 390 1:31:21.7 26,9 249 0:50:43.2 11,8
337 303 BARGUIL Philippe MV3 COURBEVOIE TRIATHLON 2:53:36.86 318 16 011827361950MV3FRA 308 0:30:47.8 2,9 361 1:29:00.9 27,6 310 0:53:48.0 11,2
338 140 GEYER Numa MV1 TRIATHLON CLUB ST QUENTIN EN YVEL. 2:53:40.69 319 53 011468039553MV1FRA 326 0:31:23.0 2,9 339 1:27:17.1 28,2 336 0:55:00.4 10,9
339 23 BARBOSA Céline FSE SENS TRIATHLON 2:53:52.01 20 16 220596956250FS2FRA 280 0:29:50.6 3,0 383 1:30:46.1 27,1 296 0:53:15.1 11,3
340 349 DOUBLET Jean-marc MV1 ASS SPORTIVE CREDIT FONCIER 2:54:38.07 320 54 011978616236MV1FRA 373 0:32:28.0 2,8            
341 491 TRAN Tri Duc MSE   2:54:38.15 321 206   331 0:31:27.2 2,9 337 1:27:00.1 28,3 357 0:56:10.8 10,7
342 231 GALET Michel MV1 OTC 45 2:54:55.64 322 55 170366655936MV1FRA 290 0:30:08.3 3,0 344 1:27:46.4 28,0 364 0:57:00.8 10,5
343 466 MASSOT Pascal MV1   2:55:12.19 323 56   439 0:35:51.5 2,5 307 1:25:06.8 28,9 318 0:54:13.7 11,1
344 218 BOUIGE Sébastien MV1 POISSY TRIATHLON 2:55:25.74 324 57 01020T448431MV1FRA 147 0:26:46.9 3,4 420 1:35:06.9 25,9 302 0:53:31.8 11,2
345 234 LEHMANN Jérôme MSE NOGENT SOLIDARITE TRIATHLON 2:55:44.64 325 207 012057962436MS3FRA 348 0:31:48.5 2,8 379 1:30:19.8 27,2 304 0:53:36.3 11,2
346 173 ASSIS Pedro MSE STADE FRANCAIS 2:55:47.41 326 208 010394001399MS3FRA 237 0:28:36.5 3,1 184 1:18:54.2 31,2 439 1:08:16.6 8,8
347 483 SALTARIN Vincent MSE   2:55:50.19 327 209   456 0:37:02.5 2,4 369 1:29:29.9 27,5 216 0:49:17.7 12,2
348 189 SZARZYNSKI Pierre MV1 TSF 2:55:50.26 328 58 011786560584MS1FRA                  
349 380 LEFEVRE Franck MSE A.S. CORBEIL-ESSONNES TRIATHLON 2:56:15.13 329 210 011236543399MS4FRA 395 0:33:42.5 2,7 329 1:26:35.2 28,4 354 0:55:57.3 10,7
350 402 BASTIDE Xavier MSE   2:56:29.44 330 211   388 0:33:33.3 2,7 353 1:28:23.9 27,8 324 0:54:32.1 11,0
351 439 GESTRIN Michael MV2   2:56:37.02 331 34   365 0:32:12.3 2,8 366 1:29:14.3 27,6 343 0:55:10.2 10,9
352 418 CÔME Noé MSE   2:57:14.67 332 212   255 0:29:02.3 3,1 373 1:29:49.9 27,4 384 0:58:22.3 10,3
353 59 MORICHAUD Nicolas MSE VMT - VALLEE DE MONTMORENCY TRIATHLON 2:57:15.78 333 213 011387980147MS2FRA 379 0:33:10.1 2,7 264 1:22:44.5 29,7 411 1:01:21.1 9,8
354 489 TERRIER Jean-jacques MV1   2:57:36.02 334 59   349 0:31:48.5 2,8            
355 470 MERMILLIOD Eric MV1   2:57:39.13 335 60   407 0:34:08.3 2,6 380 1:30:23.5 27,2 293 0:53:07.1 11,3
356 440 GODEFROY Fabrice MV1   2:57:44.68 336 61   463 0:37:57.5 2,4 338 1:27:16.5 28,2 281 0:52:30.5 11,4
357 37 BOULANGER Emilie FSE COURBEVOIE TRIATHLON 2:57:50.31 21 17 011828036242FS2FRA 423 0:34:48.6 2,6 340 1:27:17.7 28,2 348 0:55:43.8 10,8
358 61 RENARD Konrad MV2 VMT - VALLEE DE MONTMORENCY TRIATHLON 2:57:53.16 337 35 011387979899MV2FRA 440 0:35:54.2 2,5 352 1:28:23.1 27,8 303 0:53:35.7 11,2
359 89 VENTRE Cedric MSE UNION ATHLETIQUE SOCIETE GENERALE 2:57:54.06 338 214 011434438336MS4FRA 310 0:30:51.3 2,9 416 1:34:14.9 26,1 287 0:52:47.7 11,4
360 278 MEYER Christian MV2 ENTENTE SPORTIVE NANTERRE 2:58:07.12 339 36 010533488036MV2FRA 460 0:37:36.0 2,4 355 1:28:30.5 27,8 270 0:52:00.5 11,5
361 245 DAO Bertrand MV2 LAGARDERE PARIS RACING 2:58:09.13 340 37 010085857899MV2FRA 224 0:28:21.4 3,2 423 1:35:25.2 25,8 321 0:54:22.3 11,0
362 400 BARDINET Stéphane MSE   2:58:13.58 341 215   298 0:30:17.0 3,0 410 1:33:28.5 26,3 322 0:54:28.0 11,0
363 406 BERSIER Dominique MV2   2:58:17.19 342 38   461 0:37:38.0 2,4 348 1:28:01.2 27,9 283 0:52:37.8 11,4
364 272 CARRAZE Jean-loup MSE E-PASSY TRIATHLON 2:58:28.10 343 216 011707919136MS3FRA 141 0:26:40.8 3,4 377 1:30:04.1 27,3 416 1:01:43.1 9,7
365 132 CARRETERO Cyril MSE TRIATHLON SAINT REMY LES CHEVREUSE 2:58:31.01 344 217 010127266736MS4FRA 371 0:32:20.7 2,8 230 1:20:52.1 30,4 434 1:05:18.1 9,2
366 76 SUBIRANA André MV2 USCPCA RP 2:58:41.08 345 39 011807962536MV2FR 377 0:32:52.7 2,7 408 1:33:05.7 26,4 284 0:52:42.6 11,4
367 129 PIERRE Patrick MV3 TRIATHLON SANNOIS FRANCONVILLE 2:58:46.99 346 17 011786418899MV3FRA 372 0:32:26.3 2,8 343 1:27:36.1 28,1 389 0:58:44.4 10,2
368 32 COTARD Corrine FV2 POISSY TRIATHLON 2:58:57.68 22 2 010205352636FV2FRA 359 0:32:07.0 2,8 350 1:28:04.1 27,9 390 0:58:46.4 10,2
369 431 ESTIN Lionel MSE   2:59:12.06 347 218   252 0:28:59.2 3,1 397 1:31:53.8 26,8 383 0:58:18.9 10,3
370 358 NOEL Philippe MV2 ANTONY NATATION SECTION TRIATHLON 2:59:13.25 348 40 011794242136MV2FRA 403 0:34:05.0 2,6 341 1:27:22.9 28,2 374 0:57:45.1 10,4
371 150 MIGUET Jean-pierre MSE TRIATHLON 91 2:59:16.16 349 219 010165956036MS4FRA 469 0:38:51.2 2,3 259 1:22:29.0 29,8 377 0:57:55.8 10,4
372 411 BRANCHAT Philippe MSE   2:59:17.82 350 220   346 0:31:46.9 2,8 394 1:31:41.7 26,8 349 0:55:49.2 10,7
373 405 BERNIER Christophe MSE   2:59:26.44 351 221   378 0:33:02.3 2,7 388 1:31:15.2 27,0 340 0:55:08.7 10,9
374 77 ANTOINE Joel MV3 US PALAISEAU TRIATHLON 2:59:42.96 352 18 010363489250MV3FRA 430 0:35:24.3 2,5 382 1:30:39.5 27,1 305 0:53:39.0 11,2
375 74 MORIN Jean-pierre MV5 VELIZY TRIATHLON 3:00:03.11 353 4 011570322899MV5FRA 352 0:31:51.9 2,8 396 1:31:50.8 26,8 358 0:56:20.3 10,6
376 469 MERCADIER Loic MSE   3:00:11.23 354 222   277 0:29:46.8 3,0 414 1:34:03.7 26,2 359 0:56:20.5 10,6
377 484 SCHERER Olivier MV1   3:00:18.72 355 62   390 0:33:36.3 2,7 375 1:29:54.4 27,4 362 0:56:47.9 10,6
378 285 VINCENT-GENOD Olivier MSE E.S. RENAULT TRIATHLON 3:00:23.52 356 223 012137910936MS4FRA 279 0:29:48.3 3,0 398 1:31:54.9 26,8 387 0:58:40.2 10,2
379 252 BELGE Antoine MV1 INVIDUEL(LE) 3:00:49.68 357 63 010008473036MV1FRA 288 0:30:04.6 3,0 432 1:36:26.0 25,5 320 0:54:18.9 11,0
380 437 GAINTRAND Pierre MV1   3:00:52.13 358 64   316 0:31:03.5 2,9 356 1:28:39.4 27,7 406 1:01:09.1 9,8
381 476 POYLIE Arnaud MSE   3:00:56.00 359 224   465 0:38:19.5 2,3 386 1:31:08.7 27,0 262 0:51:27.6 11,7
382 216 BEGARD Stéphane MV2 POISSY TRIATHLON 3:01:03.99 360 41 01020T442642MV2FRA 443 0:36:19.7 2,5 385 1:31:01.4 27,0 307 0:53:42.8 11,2
383 460 LEROUX Frank MV1   3:01:10.10 361 65   427 0:34:54.1 2,6 391 1:31:34.5 26,9 327 0:54:41.3 11,0
384 154 VERNON Stephane MSE TRIATHLON 91 3:01:24.47 362 225 010165973848MS2FRA 247 0:28:53.6 3,1 419 1:34:52.5 25,9 370 0:57:38.2 10,4
385 447 HRICANEK Stephane MSE   3:01:27.74 363 226   437 0:35:41.8 2,5 446 1:43:43.9 23,7 46 0:42:01.9 14,3
386 133 JOUANNEAU Didier MV2 TRIATHLON PLESSIS ROBINSON 3:01:29.06 364 42 010140081836MV2FRA 335 0:31:30.3 2,9 406 1:32:50.4 26,5 366 0:57:08.3 10,5
387 432 EYRIEY Laurent MSE   3:01:30.72 365 227   466 0:38:23.0 2,3 392 1:31:38.5 26,8 263 0:51:29.0 11,7
388 155 HERVOUET-BARANGER Mickael MSE TRIATH`CLUB D`ANDRESY 3:01:38.63 366 228 010476544450MS3FRA 291 0:30:08.5 3,0 409 1:33:25.7 26,3 379 0:58:04.4 10,3
389 53 DUCHEMIN Cyrille MSE VMT - VALLEE DE MONTMORENCY TRIATHLON 3:01:40.51 367 229 011387352436MS3FRA 462 0:37:47.7 2,4 278 1:23:11.5 29,6 402 1:00:41.2 9,9
390 342 MURRU Christophe MSE BEAUMONT TRIATHLON 3:01:52.31 368 230 010598509699MS4FRA 429 0:35:01.8 2,6 363 1:29:05.6 27,6 373 0:57:44.8 10,4
391 85 LE BOUDEC Michel MV3 UNION ATHLETIQUE SOCIETE GENERALE 3:02:06.13 369 19 011432641736MV3FRA 294 0:30:10.6 3,0 403 1:32:27.5 26,6 395 0:59:27.9 10,1
392 262 RODIER Pascal MSE FREE IRON TEAM 3:02:14.40 370 231 040318000823MS4FRA 459 0:37:31.7 2,4 405 1:32:50.2 26,5 268 0:51:52.4 11,6
393 255 LUCAS Christophe MV1 INVIDUEL(LE) 3:02:24.59 371 66 010000268636MV1FRA 428 0:34:57.0 2,6 371 1:29:33.1 27,5 376 0:57:54.3 10,4
394 479 RIOS Carlos MV3   3:02:43.82 372 20   246 0:28:50.6 3,1 404 1:32:34.2 26,6 409 1:01:18.9 9,8
395 346 LAVALEE Alban MSE ASTRE CREILLOIS 3:03:17.63 373 232 030226949750MS3FRA 329 0:31:26.4 2,9 316 1:25:41.2 28,7 435 1:06:09.9 9,1
396 270 SUIRE Yannick MV2 EPPG TRIATHLON CLUB 93 3:03:18.53 374 43 EN COURS 148 0:26:49.6 3,4 400 1:32:01.6 26,7 428 1:04:27.2 9,3
397 11 FLEURAT Sandrine FSE TRIATHLON CLUB ST QUENTIN EN YVEL. 3:03:33.66 23 18 011463820542FS4FRA 426 0:34:52.4 2,6 374 1:29:53.9 27,4 391 0:58:47.2 10,2
398 26 VANMARCKE Valérie FSE S.O. HOUILLES TRIATHLON 3:03:55.31 24 19 010066716336FS3FRA 322 0:31:16.6 2,9 387 1:31:14.0 27,0 412 1:01:24.6 9,8
399 267 COUSSEAU Vincent MV4 EPPG TRIATHLON CLUB 93 3:03:56.29 375 6 011597914636MV4FRA 355 0:31:56.1 2,8 372 1:29:47.7 27,4 419 1:02:12.3 9,6
400 473 MOUILLARD Ludovic MSE   3:04:18.84 376 233   227 0:28:27.1 3,2 364 1:29:07.5 27,6 436 1:06:44.1 9,0
401 465 MARIE Jens MSE   3:04:35.29 377 234   339 0:31:34.8 2,8 436 1:37:56.5 25,1 337 0:55:03.9 10,9
402 50 CORBASSIERE William MV2 VMT - VALLEE DE MONTMORENCY TRIATHLON 3:04:49.80 378 44 011387353136MV2FRA 422 0:34:43.6 2,6 422 1:35:19.0 25,8 331 0:54:47.0 11,0
403 487 SINTUREL Émile MSE   3:05:14.71 379 235   449 0:36:40.7 2,5 358 1:28:44.8 27,7 397 0:59:49.1 10,0
404 35 PETIT Anne-sophie FSE DASSAULT SPORT 3:05:19.78 25 20 011297991236FS3FRA             415 1:01:30.0 9,8
405 18 SARLAT Patricia FV2 T.N.T. EZANVILLE 3:06:05.45 26 3 011064614050FV2FRA 420 0:34:39.9 2,6 357 1:28:44.0 27,7 422 1:02:41.4 9,6
406 142 JAHIER Luc MSE TRIATHLON CLUB ST QUENTIN EN YVEL. 3:06:16.21 380 236 011466804650MS4FRA 366 0:32:12.9 2,8 393 1:31:41.1 26,8 420 1:02:22.0 9,6
407 45 AZARY Laetitia FSE A.A.S. FRESNES TRIATHLON 3:06:29.95 27 21 010637476936FS3FRA 392 0:33:39.3 2,7 427 1:36:04.0 25,6 360 0:56:46.5 10,6
408 438 GAUCI Gilles MV2   3:06:54.18 381 45   408 0:34:09.1 2,6 426 1:35:57.0 25,6 361 0:56:47.9 10,6
409 289 BISSON Franck MSE E.C. SARTROUVILLE 3:07:25.83 382 237 010818381999MS2FRA 159 0:26:58.0 3,3 439 1:39:48.0 24,6 401 1:00:39.7 9,9
410 445 HABATJOU Laurent MSE   3:07:32.00 383 238   414 0:34:19.5 2,6 421 1:35:10.0 25,8 378 0:58:02.3 10,3
411 462 MAGEUX Julien MSE   3:07:48.33 384 239   391 0:33:38.2 2,7 424 1:35:26.5 25,8 388 0:58:43.5 10,2
412 376 DORE Romual MSE A.S. CORBEIL-ESSONNES TRIATHLON 3:07:57.90 385 240 011234758950MS3FRA 362 0:32:10.2 2,8 417 1:34:32.2 26,0 407 1:01:15.4 9,8
413 429 DUPE Jean-pierre MV1   3:07:58.80 386 67   445 0:36:24.7 2,5 412 1:33:52.4 26,2 371 0:57:41.6 10,4
414 468 MEDICI Cyril MV1   3:07:58.94 387 68   231 0:28:31.3 3,2 449 1:45:42.4 23,3 309 0:53:45.1 11,2
415 261 LAEMLE Alain MV2 FREE IRON TEAM 3:08:02.28 388 46 040318000953MV2FRA 438 0:35:43.3 2,5 389 1:31:17.4 26,9 405 1:01:01.4 9,8
416 442 GRIFFIER Alexandre MSE   3:08:26.09 389 241   194 0:27:40.2 3,3 444 1:43:01.0 23,9 372 0:57:44.8 10,4
417 451 JOLLY Xavier MV1   3:08:37.75 390 69   436 0:35:36.6 2,5 395 1:31:42.9 26,8 408 1:01:18.1 9,8
418 421 DA SILVA Pierre MSE   3:08:53.86 391 242   451 0:36:44.4 2,4 431 1:36:25.9 25,5 347 0:55:43.4 10,8
419 435 FIEDLER Olivier MV2   3:09:30.45 392 47   311 0:30:51.3 2,9 434 1:37:40.5 25,2 404 1:00:58.5 9,8
420 433 FERNANDEZ DE RODRIGUEZ Raphael MSE   3:09:35.93 393 243   457 0:37:28.1 2,4 365 1:29:07.9 27,6 424 1:02:59.8 9,5
421 12 MAGE Sabine FSE TRIATHLON CLUB ST QUENTIN EN YVEL. 3:09:46.36 28 22 011465863642FS4FRA 323 0:31:17.1 2,9 415 1:34:06.0 26,1 427 1:04:23.1 9,3
422 158 DELAGRANGE Philippe MV3 TRI.CLUB ISSY LES MOULINEAUX 3:10:45.17 394 21 010627465636MV3FRA 411 0:34:18.2 2,6 402 1:32:19.2 26,6 425 1:04:07.6 9,4
423 47 KONG Lyse FSE   3:10:45.52 29 23   201 0:27:48.6 3,2 447 1:43:48.0 23,7 393 0:59:08.7 10,1
424 181 HENRAT Christophe MV2 STADE FRANCAIS 3:11:34.27 395 48 010397672623MV2FRA 397 0:33:47.4 2,7 435 1:37:47.0 25,2 398 0:59:59.7 10,0
425 22 MARTINI Felicity FSE STADE FRANCAIS 3:11:52.27 30 24 010396737736FS4CAN 419 0:34:39.1 2,6 401 1:32:12.9 26,7 431 1:05:00.1 9,2
426 295 PAYET Yves MV2 E.C. SARTROUVILLE 3:12:10.32 396 49 010815971650MV2FRA 471 0:40:25.4 2,2 413 1:33:52.6 26,2 375 0:57:52.2 10,4
427 495 VENTURA Marcel MV1   3:12:23.18 397 70   458 0:37:30.9 2,4 411 1:33:31.6 26,3 410 1:01:20.5 9,8
428 414 CAVAILLES Daniel MV2   3:12:42.22 398 50   271 0:29:28.4 3,1 418 1:34:40.3 26,0 440 1:08:33.4 8,8
429 83 JUREK Pascal MV2 UNION ATHLETIQUE SOCIETE GENERALE 3:12:56.18 399 51 011433517736MV2FRA 455 0:36:59.0 2,4 311 1:25:22.2 28,8 443 1:10:34.7 8,5
430 292 GAILLARD Philippe MSE E.C. SARTROUVILLE 3:14:58.79 400 244 010818381899MS4FRA 382 0:33:18.6 2,7 440 1:40:14.7 24,5 414 1:01:25.4 9,8
431 478 RANDRIANARIMANANA Philippe MSE   3:15:14.77 401 245   472 0:40:57.6 2,2 407 1:32:52.0 26,5 413 1:01:25.0 9,8
432 183 DUFOU Paul MV1   3:15:22.97 402 71   400 0:33:58.1 2,6 428 1:36:19.7 25,5 432 1:05:05.0 9,2
433 434 FERRET Laurent MSE   3:15:49.12 403 246   404 0:34:07.6 2,6 451 1:47:10.7 23,0 323 0:54:30.7 11,0
434 472 MONDET Johann MSE   3:16:07.74 404 247   305 0:30:30.9 2,9 430 1:36:22.6 25,5 441 1:09:14.1 8,7
435 257 GUELMI Kamel MV3 HAC TRIATHLON 3:16:21.16 405 22 190200364332MV3FRA 418 0:34:33.2 2,6 442 1:41:23.5 24,3 399 1:00:24.3 9,9
436 222 FOLGOAS Alain MV1 POISSY TRIATHLON 3:16:34.30 406 72 010208461636MV1FRA 473 0:45:40.1 2,0 360 1:28:56.9 27,7 417 1:01:57.1 9,7
437 57 LÉTOCART Lucas MSE VMT - VALLEE DE MONTMORENCY TRIATHLON 3:16:45.09 407 248 011387980432MS3FRA 434 0:35:34.0 2,5 384 1:30:47.3 27,1 442 1:10:23.7 8,5
438 497 VILLION Julien MSE   3:17:16.72 408 249   347 0:31:46.9 2,8 437 1:38:21.2 25,0 437 1:07:08.4 8,9
439 80 COULIER Alexandre MSE UNION ATHLETIQUE SOCIETE GENERALE 3:19:25.52 409 250 011438665836MS3FRA 337 0:31:33.4 2,9 450 1:46:56.4 23,0 403 1:00:55.6 9,8
440 39 GALEWSKI Claire FSE COURBEVOIE TRIATHLON 3:19:46.78 31 25 011828035432FS2FRA 239 0:28:38.7 3,1 433 1:37:03.0 25,3 445 1:14:05.0 8,1
441 201 DELBERT Jean-paul MV3 ROYAL TRIATHLON LILLE 3:20:01.79 410 23 020683892231MV3FRA 453 0:36:51.3 2,4 438 1:38:49.1 24,9 426 1:04:21.3 9,3
442 13 MANCELON Karine FSE TRIATHLON CLUB ST QUENTIN EN YVEL. 3:20:52.06 32 26 011466809432FS4FRA 431 0:35:24.5 2,5 441 1:40:55.1 24,4 429 1:04:32.2 9,3
443 436 FOURNET Cedric MV1   3:20:59.30 411 73   208 0:28:00.4 3,2 425 1:35:53.0 25,7 446 1:17:05.8 7,8
444 481 ROBERT Franck MV2   3:21:08.34 412 52   468 0:38:41.0 2,3 443 1:41:47.7 24,2 400 1:00:39.5 9,9
445 65 VAN WERMESKERKEN Peter MV2 VMT - VALLEE DE MONTMORENCY TRIATHLON 3:22:12.12 413 53 011386964950MV2FRA 442 0:36:18.6 2,5 445 1:43:22.3 23,8 421 1:02:31.0 9,6
446 81 ECARY Pierre MSE UNION ATHLETIQUE SOCIETE GENERALE 3:24:37.23 414 251 011434001936MS4FRA 432 0:35:25.0 2,5 448 1:44:38.3 23,5 430 1:04:33.7 9,3
447 34 TURBELIN Cecile FSE LEVALLOIS TRIATHLON 3:27:21.40 33 27 011136532436FS2FRA 342 0:31:37.0 2,8 454 1:48:30.4 22,7 438 1:07:13.9 8,9
448 417 COLLETAZ Cyril MSE   3:30:07.63 415 252   424 0:34:49.8 2,6 429 1:36:21.9 25,5 448 1:18:55.8 7,6
449 461 LOISEAU Eric MV1   3:32:59.02 416 74   470 0:39:09.8 2,3 455 1:48:34.1 22,7 433 1:05:14.9 9,2
450 55 LAGARDE Pierre-etienne MSE VMT - VALLEE DE MONTMORENCY TRIATHLON 3:39:19.72 417 253 011387980542MS2FRA 202 0:27:49.0 3,2 456 1:59:26.0 20,6 444 1:12:04.6 8,3
451 467 MEDICI André MV2   3:41:54.78 418 54   446 0:36:26.4 2,5 452 1:47:29.9 22,9 447 1:17:58.3 7,7
452 215 BADIN Jean-françois MV2 POISSY TRIATHLON 0:00:00.00 Dsq Dsq 010200062223MV2FRA 21 0:21:06.5 4,3            
453 313 LE GOFF Fabien MSE COURBEVOIE TRIATHLON 0:00:00.00 Dsq Dsq 011827360936MS4FRA 275 0:29:40.6 3,0            
454 475 POTTIER Patrick MV3   0:00:00.00 Dsq Dsq   474 0:50:28.1 1,8            
455 2 MARTINOU Laurent MSE U S METROPOLITAINE DES TRANSPORTS 2:05:44.04 Dsq Dsq 011630119536MS3FRA 20 0:21:01.4 4,3 3 1:06:18.6 37,1 11 0:38:23.9 15,6
456 9 CROS Fabien MV1 S.O. HOUILLES TRIATHLON 0:00:00.00 Abd Abd 010060283747MV1FRA 19 0:20:59.3 4,3 176 1:18:33.5 31,3 12 0:38:46.5 15,5
457 28 ARDOINO Magali FSE RED STAR CLUB CHAMPIGNY 0:00:00.00 Abd Abd 010446805436FS3FRA 46 0:23:20.2 3,9            
458 70 DESFORGES Patrick MSE VERSAILLES TRIATHLON 0:00:00.00 Abd Abd 0116979340036MS4FRA 60 0:23:43.3 3,8            
459 84 LAURENS Didier MV1 UNION ATHLETIQUE SOCIETE GENERALE 0:00:00.00 Abd Abd 011438616136MV1FRA 144 0:26:45.2 3,4 257 1:22:21.6 29,9 418 1:02:02.3 9,7
460 93 DENEU Mickael MSE U.S.O. BEZONS 0:00:00.00 Abd Abd 01128663599MS2FRA 42 0:23:10.2 3,9 30 1:10:44.4 34,8      
461 162 MALDEREZ Louis MV3 TRI.CLUB ISSY LES MOULINEAUX 0:00:00.00 Abd Abd 010625347936MV2FRA 209 0:28:00.7 3,2 453 1:48:02.1 22,8 1 0:02:11.4 273,8
462 164 VERDEGUER Francisco MSE TRI.CLUB ISSY LES MOULINEAUX 0:00:00.00 Abd Abd 010627914484MS2FRA 127 0:26:17.0 3,4            
463 178 GRAND-DEWYSE Alexandre MSE STADE FRANCAIS 0:00:00.00 Abd Abd 010398477036MS2FRA 435 0:35:34.5 2,5            
464 197 TOURNEUR Mathieu MSE S.O. HOUILLES TRIATHLON 0:00:00.00 Abd Abd 010064715284MS2FRA 39 0:23:02.2 3,9 157 1:17:51.2 31,6      
465 203 FRED Frederic MSE ROUEN TRIATHLON 0:00:00.00 Abd Abd 190068219450MS4FRA 93 0:25:30.8 3,5            
466 279 VANDERVALLE Albert-georges MV5 ENTENTE SPORTIVE NANTERRE 0:00:00.00 Abd Abd 010530227270MV5FRA 89 0:25:22.1 3,5 347 1:27:55.5 28,0      
467 293 LECOURBARON Ludovic MSE E.C. SARTROUVILLE 0:00:00.00 Abd Abd 010816889736MS2FRA 417 0:34:25.4 2,6            
468 324 ROYER Stéphane MSE CLUB YERROIS DE TRIATHLON 91 0:00:00.00 Abd Abd 010545362650MS4FRA 129 0:26:23.5 3,4            
469 338 JANSON Loic MSE BEAUVAIS TRIATHLON 0:00:00.00 Abd Abd 030285168342MS4FRA 59 0:23:43.0 3,8 28 1:10:21.8 35,0      
470 355 MONTERO BARRERO Guillaume MJU ASCC.RAMBOUILLET OLYMPIQUE 0:00:00.00 Abd Abd 010177962184MJUFRA 242 0:28:42.1 3,1            
471 374 AZRA Rémy MSE A.S. CORBEIL-ESSONNES TRIATHLON 0:00:00.00 Abd Abd 011233975650MS4FRA 254 0:29:01.5 3,1 306 1:25:02.4 28,9      
472 394 BURTIN Patrick MV3 A.A.S. FRESNES TRIATHLON 0:00:00.00 Abd Abd 010634612736MV3FRA 297 0:30:16.6 3,0 321 1:26:02.1 28,6      
473 413 BUTEL Emmanuel MSE   0:00:00.00 Abd Abd   448 0:36:31.0 2,5 9 1:06:52.9 36,8      
474 492 TROCHERIE Vincent MSE   0:00:00.00 Abd Abd   374 0:32:37.3 2,8